<?xml version="1.0" encoding="UTF-8" standalone="no" ?>
<gpx xmlns="http://www.topografix.com/GPX/1/1" xmlns:xsi="http://www.w3.org/2001/XMLSchema-instance" xsi:schemaLocation="http://www.topografix.com/GPX/1/1 http://www.topografix.com/GPX/1/1/gpx.xsd" version="1.1" creator="VisuGPX - https://www.visugpx.com">
  <metadata>
    <name>Vertaco Bike 35km E rando du Vercors _h46aiwvlt7</name>
  </metadata>
  <trk>
    <name><![CDATA[10100971-final VTTAE 35km]]></name>
    <extensions>
      <line xmlns="http://www.topografix.com/GPX/gpx_style/0/2">
        <color>0000FF</color>
        <width>4</width>
      </line>
    </extensions>
    <trkseg>
      <trkpt lat="45.17494" lon="5.54186">
        <ele>1045</ele>
        <time>2019-06-19T21:38:24Z</time>
      </trkpt>
      <trkpt lat="45.17498" lon="5.54184">
        <ele>1045</ele>
        <time>2019-06-19T21:38:25Z</time>
      </trkpt>
      <trkpt lat="45.17486" lon="5.54188">
        <ele>1044</ele>
        <time>2019-06-19T21:38:28Z</time>
      </trkpt>
      <trkpt lat="45.17482" lon="5.54181">
        <ele>1044</ele>
        <time>2019-06-19T21:38:29Z</time>
      </trkpt>
      <trkpt lat="45.17477" lon="5.54159">
        <ele>1044</ele>
        <time>2019-06-19T21:38:33Z</time>
      </trkpt>
      <trkpt lat="45.17471" lon="5.54148">
        <ele>1043</ele>
        <time>2019-06-19T21:38:35Z</time>
      </trkpt>
      <trkpt lat="45.17377" lon="5.54055">
        <ele>1037</ele>
        <time>2019-06-19T21:39:02Z</time>
      </trkpt>
      <trkpt lat="45.17372" lon="5.54037">
        <ele>1036</ele>
        <time>2019-06-19T21:39:05Z</time>
      </trkpt>
      <trkpt lat="45.17374" lon="5.54018">
        <ele>1036</ele>
        <time>2019-06-19T21:39:09Z</time>
      </trkpt>
      <trkpt lat="45.17412" lon="5.53867">
        <ele>1033</ele>
        <time>2019-06-19T21:39:35Z</time>
      </trkpt>
      <trkpt lat="45.17443" lon="5.53689">
        <ele>1037</ele>
        <time>2019-06-19T21:40:05Z</time>
      </trkpt>
      <trkpt lat="45.1747" lon="5.53684">
        <ele>1038</ele>
        <time>2019-06-19T21:40:11Z</time>
      </trkpt>
      <trkpt lat="45.1749" lon="5.53687">
        <ele>1038</ele>
        <time>2019-06-19T21:40:16Z</time>
      </trkpt>
      <trkpt lat="45.17522" lon="5.53686">
        <ele>1040</ele>
        <time>2019-06-19T21:40:24Z</time>
      </trkpt>
      <trkpt lat="45.17588" lon="5.53691">
        <ele>1046</ele>
        <time>2019-06-19T21:40:39Z</time>
      </trkpt>
      <trkpt lat="45.17645" lon="5.53673">
        <ele>1048</ele>
        <time>2019-06-19T21:40:53Z</time>
      </trkpt>
      <trkpt lat="45.17658" lon="5.53662">
        <ele>1048</ele>
        <time>2019-06-19T21:40:56Z</time>
      </trkpt>
      <trkpt lat="45.17669" lon="5.53645">
        <ele>1048</ele>
        <time>2019-06-19T21:41:00Z</time>
      </trkpt>
      <trkpt lat="45.17729" lon="5.53508">
        <ele>1037</ele>
        <time>2019-06-19T21:41:27Z</time>
      </trkpt>
      <trkpt lat="45.17763" lon="5.53425">
        <ele>1037</ele>
        <time>2019-06-19T21:41:42Z</time>
      </trkpt>
      <trkpt lat="45.17815" lon="5.53287">
        <ele>1039</ele>
        <time>2019-06-19T21:42:08Z</time>
      </trkpt>
      <trkpt lat="45.17823" lon="5.53277">
        <ele>1039</ele>
        <time>2019-06-19T21:42:11Z</time>
      </trkpt>
      <trkpt lat="45.17828" lon="5.53275">
        <ele>1040</ele>
        <time>2019-06-19T21:42:12Z</time>
      </trkpt>
      <trkpt lat="45.17839" lon="5.53277">
        <ele>1040</ele>
        <time>2019-06-19T21:42:14Z</time>
      </trkpt>
      <trkpt lat="45.17903" lon="5.53301">
        <ele>1042</ele>
        <time>2019-06-19T21:42:30Z</time>
      </trkpt>
      <trkpt lat="45.17951" lon="5.53339">
        <ele>1042</ele>
        <time>2019-06-19T21:42:43Z</time>
      </trkpt>
      <trkpt lat="45.17961" lon="5.53342">
        <ele>1041</ele>
        <time>2019-06-19T21:42:45Z</time>
      </trkpt>
      <trkpt lat="45.17976" lon="5.53342">
        <ele>1041</ele>
        <time>2019-06-19T21:42:49Z</time>
      </trkpt>
      <trkpt lat="45.17999" lon="5.53336">
        <ele>1040</ele>
        <time>2019-06-19T21:42:54Z</time>
      </trkpt>
      <trkpt lat="45.18034" lon="5.53346">
        <ele>1042</ele>
        <time>2019-06-19T21:43:02Z</time>
      </trkpt>
      <trkpt lat="45.1805" lon="5.53348">
        <ele>1043</ele>
        <time>2019-06-19T21:43:06Z</time>
      </trkpt>
      <trkpt lat="45.18077" lon="5.53344">
        <ele>1045</ele>
        <time>2019-06-19T21:43:13Z</time>
      </trkpt>
      <trkpt lat="45.18095" lon="5.53336">
        <ele>1045</ele>
        <time>2019-06-19T21:43:17Z</time>
      </trkpt>
      <trkpt lat="45.18211" lon="5.53325">
        <ele>1051</ele>
        <time>2019-06-19T21:43:44Z</time>
      </trkpt>
      <trkpt lat="45.18253" lon="5.53342">
        <ele>1054</ele>
        <time>2019-06-19T21:43:54Z</time>
      </trkpt>
      <trkpt lat="45.18271" lon="5.53365">
        <ele>1056</ele>
        <time>2019-06-19T21:44:00Z</time>
      </trkpt>
      <trkpt lat="45.18304" lon="5.53427">
        <ele>1062</ele>
        <time>2019-06-19T21:44:13Z</time>
      </trkpt>
      <trkpt lat="45.18321" lon="5.53522">
        <ele>1065</ele>
        <time>2019-06-19T21:44:29Z</time>
      </trkpt>
      <trkpt lat="45.18305" lon="5.53588">
        <ele>1069</ele>
        <time>2019-06-19T21:44:40Z</time>
      </trkpt>
      <trkpt lat="45.18328" lon="5.53617">
        <ele>1066</ele>
        <time>2019-06-19T21:44:48Z</time>
      </trkpt>
      <trkpt lat="45.18343" lon="5.53631">
        <ele>1066</ele>
        <time>2019-06-19T21:44:52Z</time>
      </trkpt>
      <trkpt lat="45.18375" lon="5.53647">
        <ele>1069</ele>
        <time>2019-06-19T21:45:00Z</time>
      </trkpt>
      <trkpt lat="45.18423" lon="5.53729">
        <ele>1074</ele>
        <time>2019-06-19T21:45:17Z</time>
      </trkpt>
      <trkpt lat="45.1847" lon="5.53773">
        <ele>1078</ele>
        <time>2019-06-19T21:45:30Z</time>
      </trkpt>
      <trkpt lat="45.18532" lon="5.53814">
        <ele>1081</ele>
        <time>2019-06-19T21:45:46Z</time>
      </trkpt>
      <trkpt lat="45.18621" lon="5.53829">
        <ele>1086</ele>
        <time>2019-06-19T21:46:07Z</time>
      </trkpt>
      <trkpt lat="45.18676" lon="5.5382">
        <ele>1089</ele>
        <time>2019-06-19T21:46:20Z</time>
      </trkpt>
      <trkpt lat="45.187" lon="5.53842">
        <ele>1091</ele>
        <time>2019-06-19T21:46:27Z</time>
      </trkpt>
      <trkpt lat="45.18764" lon="5.5387">
        <ele>1098</ele>
        <time>2019-06-19T21:46:43Z</time>
      </trkpt>
      <trkpt lat="45.18789" lon="5.53876">
        <ele>1102</ele>
        <time>2019-06-19T21:46:48Z</time>
      </trkpt>
      <trkpt lat="45.18838" lon="5.53875">
        <ele>1109</ele>
        <time>2019-06-19T21:47:00Z</time>
      </trkpt>
      <trkpt lat="45.18853" lon="5.5387">
        <ele>1112</ele>
        <time>2019-06-19T21:47:03Z</time>
      </trkpt>
      <trkpt lat="45.1892" lon="5.53882">
        <ele>1121</ele>
        <time>2019-06-19T21:47:19Z</time>
      </trkpt>
      <trkpt lat="45.18928" lon="5.53877">
        <ele>1123</ele>
        <time>2019-06-19T21:47:21Z</time>
      </trkpt>
      <trkpt lat="45.18956" lon="5.53838">
        <ele>1130</ele>
        <time>2019-06-19T21:47:30Z</time>
      </trkpt>
      <trkpt lat="45.18949" lon="5.53709">
        <ele>1140</ele>
        <time>2019-06-19T21:47:52Z</time>
      </trkpt>
      <trkpt lat="45.18911" lon="5.53631">
        <ele>1142</ele>
        <time>2019-06-19T21:48:07Z</time>
      </trkpt>
      <trkpt lat="45.18862" lon="5.53621">
        <ele>1133</ele>
        <time>2019-06-19T21:48:19Z</time>
      </trkpt>
      <trkpt lat="45.18831" lon="5.53594">
        <ele>1131</ele>
        <time>2019-06-19T21:48:27Z</time>
      </trkpt>
      <trkpt lat="45.18821" lon="5.53564">
        <ele>1135</ele>
        <time>2019-06-19T21:48:33Z</time>
      </trkpt>
      <trkpt lat="45.18841" lon="5.53502">
        <ele>1150</ele>
        <time>2019-06-19T21:48:44Z</time>
      </trkpt>
      <trkpt lat="45.18856" lon="5.53487">
        <ele>1155</ele>
        <time>2019-06-19T21:48:48Z</time>
      </trkpt>
      <trkpt lat="45.18891" lon="5.5341">
        <ele>1171</ele>
        <time>2019-06-19T21:49:03Z</time>
      </trkpt>
      <trkpt lat="45.18913" lon="5.53382">
        <ele>1178</ele>
        <time>2019-06-19T21:49:10Z</time>
      </trkpt>
      <trkpt lat="45.1896" lon="5.53367">
        <ele>1187</ele>
        <time>2019-06-19T21:49:22Z</time>
      </trkpt>
      <trkpt lat="45.1899" lon="5.53362">
        <ele>1193</ele>
        <time>2019-06-19T21:49:29Z</time>
      </trkpt>
      <trkpt lat="45.19021" lon="5.53376">
        <ele>1196</ele>
        <time>2019-06-19T21:49:36Z</time>
      </trkpt>
      <trkpt lat="45.19042" lon="5.53374">
        <ele>1200</ele>
        <time>2019-06-19T21:49:41Z</time>
      </trkpt>
      <trkpt lat="45.1908" lon="5.53361">
        <ele>1208</ele>
        <time>2019-06-19T21:49:50Z</time>
      </trkpt>
      <trkpt lat="45.19087" lon="5.53356">
        <ele>1211</ele>
        <time>2019-06-19T21:49:52Z</time>
      </trkpt>
      <trkpt lat="45.19096" lon="5.53363">
        <ele>1212</ele>
        <time>2019-06-19T21:49:55Z</time>
      </trkpt>
      <trkpt lat="45.19101" lon="5.53377">
        <ele>1211</ele>
        <time>2019-06-19T21:49:57Z</time>
      </trkpt>
      <trkpt lat="45.19078" lon="5.53431">
        <ele>1199</ele>
        <time>2019-06-19T21:50:08Z</time>
      </trkpt>
      <trkpt lat="45.19079" lon="5.53439">
        <ele>1198</ele>
        <time>2019-06-19T21:50:09Z</time>
      </trkpt>
      <trkpt lat="45.19089" lon="5.53466">
        <ele>1198</ele>
        <time>2019-06-19T21:50:14Z</time>
      </trkpt>
      <trkpt lat="45.19112" lon="5.53504">
        <ele>1199</ele>
        <time>2019-06-19T21:50:22Z</time>
      </trkpt>
      <trkpt lat="45.19109" lon="5.53505">
        <ele>1199</ele>
        <time>2019-06-19T21:50:23Z</time>
      </trkpt>
      <trkpt lat="45.19131" lon="5.53508">
        <ele>1203</ele>
        <time>2019-06-19T21:50:28Z</time>
      </trkpt>
      <trkpt lat="45.1915" lon="5.53502">
        <ele>1209</ele>
        <time>2019-06-19T21:50:33Z</time>
      </trkpt>
      <trkpt lat="45.19152" lon="5.53498">
        <ele>1210</ele>
        <time>2019-06-19T21:50:33Z</time>
      </trkpt>
      <trkpt lat="45.19204" lon="5.53523">
        <ele>1217</ele>
        <time>2019-06-19T21:50:46Z</time>
      </trkpt>
      <trkpt lat="45.19228" lon="5.53519">
        <ele>1222</ele>
        <time>2019-06-19T21:50:52Z</time>
      </trkpt>
      <trkpt lat="45.19245" lon="5.53522">
        <ele>1225</ele>
        <time>2019-06-19T21:50:56Z</time>
      </trkpt>
      <trkpt lat="45.19269" lon="5.53537">
        <ele>1227</ele>
        <time>2019-06-19T21:51:02Z</time>
      </trkpt>
      <trkpt lat="45.19278" lon="5.53535">
        <ele>1229</ele>
        <time>2019-06-19T21:51:04Z</time>
      </trkpt>
      <trkpt lat="45.1932" lon="5.53546">
        <ele>1235</ele>
        <time>2019-06-19T21:51:14Z</time>
      </trkpt>
      <trkpt lat="45.19337" lon="5.53567">
        <ele>1235</ele>
        <time>2019-06-19T21:51:19Z</time>
      </trkpt>
      <trkpt lat="45.19358" lon="5.536">
        <ele>1232</ele>
        <time>2019-06-19T21:51:27Z</time>
      </trkpt>
      <trkpt lat="45.19365" lon="5.53603">
        <ele>1233</ele>
        <time>2019-06-19T21:51:28Z</time>
      </trkpt>
      <trkpt lat="45.19387" lon="5.53583">
        <ele>1241</ele>
        <time>2019-06-19T21:51:34Z</time>
      </trkpt>
      <trkpt lat="45.19408" lon="5.53579">
        <ele>1245</ele>
        <time>2019-06-19T21:51:39Z</time>
      </trkpt>
      <trkpt lat="45.19467" lon="5.53593">
        <ele>1247</ele>
        <time>2019-06-19T21:51:53Z</time>
      </trkpt>
      <trkpt lat="45.19474" lon="5.53598">
        <ele>1247</ele>
        <time>2019-06-19T21:51:55Z</time>
      </trkpt>
      <trkpt lat="45.19484" lon="5.536">
        <ele>1247</ele>
        <time>2019-06-19T21:51:58Z</time>
      </trkpt>
      <trkpt lat="45.19516" lon="5.53615">
        <ele>1246</ele>
        <time>2019-06-19T21:52:05Z</time>
      </trkpt>
      <trkpt lat="45.19531" lon="5.53625">
        <ele>1244</ele>
        <time>2019-06-19T21:52:09Z</time>
      </trkpt>
      <trkpt lat="45.19551" lon="5.53644">
        <ele>1241</ele>
        <time>2019-06-19T21:52:15Z</time>
      </trkpt>
      <trkpt lat="45.19578" lon="5.53665">
        <ele>1238</ele>
        <time>2019-06-19T21:52:22Z</time>
      </trkpt>
      <trkpt lat="45.19587" lon="5.53682">
        <ele>1237</ele>
        <time>2019-06-19T21:52:26Z</time>
      </trkpt>
      <trkpt lat="45.19586" lon="5.53692">
        <ele>1236</ele>
        <time>2019-06-19T21:52:27Z</time>
      </trkpt>
      <trkpt lat="45.19592" lon="5.53695">
        <ele>1237</ele>
        <time>2019-06-19T21:52:29Z</time>
      </trkpt>
      <trkpt lat="45.19606" lon="5.53714">
        <ele>1237</ele>
        <time>2019-06-19T21:52:33Z</time>
      </trkpt>
      <trkpt lat="45.196" lon="5.53731">
        <ele>1235</ele>
        <time>2019-06-19T21:52:36Z</time>
      </trkpt>
      <trkpt lat="45.19602" lon="5.53734">
        <ele>1235</ele>
        <time>2019-06-19T21:52:37Z</time>
      </trkpt>
      <trkpt lat="45.19616" lon="5.53749">
        <ele>1235</ele>
        <time>2019-06-19T21:52:41Z</time>
      </trkpt>
      <trkpt lat="45.19645" lon="5.53767">
        <ele>1240</ele>
        <time>2019-06-19T21:52:49Z</time>
      </trkpt>
      <trkpt lat="45.19657" lon="5.53782">
        <ele>1243</ele>
        <time>2019-06-19T21:52:52Z</time>
      </trkpt>
      <trkpt lat="45.19657" lon="5.53744">
        <ele>1241</ele>
        <time>2019-06-19T21:52:59Z</time>
      </trkpt>
      <trkpt lat="45.19664" lon="5.53737">
        <ele>1243</ele>
        <time>2019-06-19T21:53:01Z</time>
      </trkpt>
      <trkpt lat="45.1967" lon="5.53738">
        <ele>1244</ele>
        <time>2019-06-19T21:53:02Z</time>
      </trkpt>
      <trkpt lat="45.1968" lon="5.53749">
        <ele>1244</ele>
        <time>2019-06-19T21:53:05Z</time>
      </trkpt>
      <trkpt lat="45.19704" lon="5.53759">
        <ele>1248</ele>
        <time>2019-06-19T21:53:11Z</time>
      </trkpt>
      <trkpt lat="45.1971" lon="5.53764">
        <ele>1250</ele>
        <time>2019-06-19T21:53:12Z</time>
      </trkpt>
      <trkpt lat="45.19722" lon="5.53769">
        <ele>1252</ele>
        <time>2019-06-19T21:53:15Z</time>
      </trkpt>
      <trkpt lat="45.19741" lon="5.5377">
        <ele>1255</ele>
        <time>2019-06-19T21:53:20Z</time>
      </trkpt>
      <trkpt lat="45.19762" lon="5.53761">
        <ele>1257</ele>
        <time>2019-06-19T21:53:25Z</time>
      </trkpt>
      <trkpt lat="45.19863" lon="5.53765">
        <ele>1269</ele>
        <time>2019-06-19T21:53:48Z</time>
      </trkpt>
      <trkpt lat="45.19933" lon="5.53744">
        <ele>1277</ele>
        <time>2019-06-19T21:54:05Z</time>
      </trkpt>
      <trkpt lat="45.19997" lon="5.53742">
        <ele>1286</ele>
        <time>2019-06-19T21:54:20Z</time>
      </trkpt>
      <trkpt lat="45.20008" lon="5.53728">
        <ele>1291</ele>
        <time>2019-06-19T21:54:24Z</time>
      </trkpt>
      <trkpt lat="45.20023" lon="5.53733">
        <ele>1293</ele>
        <time>2019-06-19T21:54:27Z</time>
      </trkpt>
      <trkpt lat="45.20032" lon="5.53739">
        <ele>1293</ele>
        <time>2019-06-19T21:54:29Z</time>
      </trkpt>
      <trkpt lat="45.20055" lon="5.53777">
        <ele>1296</ele>
        <time>2019-06-19T21:54:38Z</time>
      </trkpt>
      <trkpt lat="45.20083" lon="5.53812">
        <ele>1299</ele>
        <time>2019-06-19T21:54:46Z</time>
      </trkpt>
      <trkpt lat="45.20117" lon="5.53872">
        <ele>1305</ele>
        <time>2019-06-19T21:54:59Z</time>
      </trkpt>
      <trkpt lat="45.20155" lon="5.53899">
        <ele>1305</ele>
        <time>2019-06-19T21:55:09Z</time>
      </trkpt>
      <trkpt lat="45.20173" lon="5.53907">
        <ele>1305</ele>
        <time>2019-06-19T21:55:13Z</time>
      </trkpt>
      <trkpt lat="45.202" lon="5.53929">
        <ele>1309</ele>
        <time>2019-06-19T21:55:21Z</time>
      </trkpt>
      <trkpt lat="45.20252" lon="5.53924">
        <ele>1313</ele>
        <time>2019-06-19T21:55:33Z</time>
      </trkpt>
      <trkpt lat="45.20268" lon="5.53916">
        <ele>1315</ele>
        <time>2019-06-19T21:55:37Z</time>
      </trkpt>
      <trkpt lat="45.20282" lon="5.53918">
        <ele>1318</ele>
        <time>2019-06-19T21:55:40Z</time>
      </trkpt>
      <trkpt lat="45.203" lon="5.53907">
        <ele>1323</ele>
        <time>2019-06-19T21:55:45Z</time>
      </trkpt>
      <trkpt lat="45.20334" lon="5.53905">
        <ele>1330</ele>
        <time>2019-06-19T21:55:53Z</time>
      </trkpt>
      <trkpt lat="45.20336" lon="5.53911">
        <ele>1330</ele>
        <time>2019-06-19T21:55:54Z</time>
      </trkpt>
      <trkpt lat="45.20334" lon="5.53924">
        <ele>1330</ele>
        <time>2019-06-19T21:55:56Z</time>
      </trkpt>
      <trkpt lat="45.2032" lon="5.5395">
        <ele>1331</ele>
        <time>2019-06-19T21:56:01Z</time>
      </trkpt>
      <trkpt lat="45.20296" lon="5.53981">
        <ele>1331</ele>
        <time>2019-06-19T21:56:09Z</time>
      </trkpt>
      <trkpt lat="45.20281" lon="5.54011">
        <ele>1334</ele>
        <time>2019-06-19T21:56:15Z</time>
      </trkpt>
      <trkpt lat="45.20263" lon="5.54036">
        <ele>1336</ele>
        <time>2019-06-19T21:56:21Z</time>
      </trkpt>
      <trkpt lat="45.2015" lon="5.54077">
        <ele>1341</ele>
        <time>2019-06-19T21:56:48Z</time>
      </trkpt>
      <trkpt lat="45.20134" lon="5.54079">
        <ele>1342</ele>
        <time>2019-06-19T21:56:52Z</time>
      </trkpt>
      <trkpt lat="45.20085" lon="5.5408">
        <ele>1345</ele>
        <time>2019-06-19T21:57:03Z</time>
      </trkpt>
      <trkpt lat="45.20062" lon="5.54073">
        <ele>1343</ele>
        <time>2019-06-19T21:57:09Z</time>
      </trkpt>
      <trkpt lat="45.2003" lon="5.54053">
        <ele>1338</ele>
        <time>2019-06-19T21:57:17Z</time>
      </trkpt>
      <trkpt lat="45.20006" lon="5.5405">
        <ele>1337</ele>
        <time>2019-06-19T21:57:23Z</time>
      </trkpt>
      <trkpt lat="45.19949" lon="5.5409">
        <ele>1342</ele>
        <time>2019-06-19T21:57:37Z</time>
      </trkpt>
      <trkpt lat="45.19886" lon="5.54114">
        <ele>1338</ele>
        <time>2019-06-19T21:57:53Z</time>
      </trkpt>
      <trkpt lat="45.19822" lon="5.54177">
        <ele>1334</ele>
        <time>2019-06-19T21:58:11Z</time>
      </trkpt>
      <trkpt lat="45.19807" lon="5.54206">
        <ele>1333</ele>
        <time>2019-06-19T21:58:17Z</time>
      </trkpt>
      <trkpt lat="45.19785" lon="5.54232">
        <ele>1329</ele>
        <time>2019-06-19T21:58:23Z</time>
      </trkpt>
      <trkpt lat="45.19776" lon="5.54276">
        <ele>1328</ele>
        <time>2019-06-19T21:58:31Z</time>
      </trkpt>
      <trkpt lat="45.19803" lon="5.54377">
        <ele>1340</ele>
        <time>2019-06-19T21:58:49Z</time>
      </trkpt>
      <trkpt lat="45.19788" lon="5.54416">
        <ele>1336</ele>
        <time>2019-06-19T21:58:56Z</time>
      </trkpt>
      <trkpt lat="45.19744" lon="5.54489">
        <ele>1330</ele>
        <time>2019-06-19T21:59:12Z</time>
      </trkpt>
      <trkpt lat="45.19671" lon="5.54567">
        <ele>1327</ele>
        <time>2019-06-19T21:59:33Z</time>
      </trkpt>
      <trkpt lat="45.19664" lon="5.54606">
        <ele>1328</ele>
        <time>2019-06-19T21:59:40Z</time>
      </trkpt>
      <trkpt lat="45.19666" lon="5.54666">
        <ele>1329</ele>
        <time>2019-06-19T21:59:50Z</time>
      </trkpt>
      <trkpt lat="45.19663" lon="5.547">
        <ele>1328</ele>
        <time>2019-06-19T21:59:55Z</time>
      </trkpt>
      <trkpt lat="45.19683" lon="5.54742">
        <ele>1331</ele>
        <time>2019-06-19T22:00:04Z</time>
      </trkpt>
      <trkpt lat="45.19703" lon="5.54763">
        <ele>1333</ele>
        <time>2019-06-19T22:00:10Z</time>
      </trkpt>
      <trkpt lat="45.19709" lon="5.54793">
        <ele>1333</ele>
        <time>2019-06-19T22:00:15Z</time>
      </trkpt>
      <trkpt lat="45.19678" lon="5.54877">
        <ele>1327</ele>
        <time>2019-06-19T22:00:30Z</time>
      </trkpt>
      <trkpt lat="45.1968" lon="5.54875">
        <ele>1327</ele>
        <time>2019-06-19T22:00:31Z</time>
      </trkpt>
      <trkpt lat="45.19676" lon="5.54873">
        <ele>1327</ele>
        <time>2019-06-19T22:00:32Z</time>
      </trkpt>
      <trkpt lat="45.19671" lon="5.54865">
        <ele>1327</ele>
        <time>2019-06-19T22:00:34Z</time>
      </trkpt>
      <trkpt lat="45.1965" lon="5.54861">
        <ele>1325</ele>
        <time>2019-06-19T22:00:39Z</time>
      </trkpt>
      <trkpt lat="45.19622" lon="5.54862">
        <ele>1321</ele>
        <time>2019-06-19T22:00:45Z</time>
      </trkpt>
      <trkpt lat="45.19614" lon="5.5486">
        <ele>1320</ele>
        <time>2019-06-19T22:00:47Z</time>
      </trkpt>
      <trkpt lat="45.19591" lon="5.54875">
        <ele>1315</ele>
        <time>2019-06-19T22:00:53Z</time>
      </trkpt>
      <trkpt lat="45.19584" lon="5.54871">
        <ele>1314</ele>
        <time>2019-06-19T22:00:55Z</time>
      </trkpt>
      <trkpt lat="45.19573" lon="5.5487">
        <ele>1312</ele>
        <time>2019-06-19T22:00:57Z</time>
      </trkpt>
      <trkpt lat="45.19571" lon="5.54882">
        <ele>1311</ele>
        <time>2019-06-19T22:00:59Z</time>
      </trkpt>
      <trkpt lat="45.19555" lon="5.54882">
        <ele>1308</ele>
        <time>2019-06-19T22:01:03Z</time>
      </trkpt>
      <trkpt lat="45.19539" lon="5.5487">
        <ele>1306</ele>
        <time>2019-06-19T22:01:07Z</time>
      </trkpt>
      <trkpt lat="45.19495" lon="5.54846">
        <ele>1303</ele>
        <time>2019-06-19T22:01:18Z</time>
      </trkpt>
      <trkpt lat="45.19484" lon="5.54836">
        <ele>1303</ele>
        <time>2019-06-19T22:01:21Z</time>
      </trkpt>
      <trkpt lat="45.19475" lon="5.54833">
        <ele>1303</ele>
        <time>2019-06-19T22:01:23Z</time>
      </trkpt>
      <trkpt lat="45.19465" lon="5.54835">
        <ele>1302</ele>
        <time>2019-06-19T22:01:26Z</time>
      </trkpt>
      <trkpt lat="45.19465" lon="5.54845">
        <ele>1301</ele>
        <time>2019-06-19T22:01:27Z</time>
      </trkpt>
      <trkpt lat="45.19468" lon="5.54848">
        <ele>1300</ele>
        <time>2019-06-19T22:01:28Z</time>
      </trkpt>
      <trkpt lat="45.19467" lon="5.54854">
        <ele>1299</ele>
        <time>2019-06-19T22:01:29Z</time>
      </trkpt>
      <trkpt lat="45.19463" lon="5.54858">
        <ele>1298</ele>
        <time>2019-06-19T22:01:30Z</time>
      </trkpt>
      <trkpt lat="45.19458" lon="5.54859">
        <ele>1298</ele>
        <time>2019-06-19T22:01:32Z</time>
      </trkpt>
      <trkpt lat="45.1945" lon="5.54856">
        <ele>1298</ele>
        <time>2019-06-19T22:01:34Z</time>
      </trkpt>
      <trkpt lat="45.19445" lon="5.54845">
        <ele>1299</ele>
        <time>2019-06-19T22:01:36Z</time>
      </trkpt>
      <trkpt lat="45.19413" lon="5.54827">
        <ele>1299</ele>
        <time>2019-06-19T22:01:44Z</time>
      </trkpt>
      <trkpt lat="45.19412" lon="5.5481">
        <ele>1299</ele>
        <time>2019-06-19T22:01:47Z</time>
      </trkpt>
      <trkpt lat="45.1941" lon="5.54807">
        <ele>1299</ele>
        <time>2019-06-19T22:01:47Z</time>
      </trkpt>
      <trkpt lat="45.19392" lon="5.54808">
        <ele>1299</ele>
        <time>2019-06-19T22:01:51Z</time>
      </trkpt>
      <trkpt lat="45.19392" lon="5.5481">
        <ele>1299</ele>
        <time>2019-06-19T22:01:52Z</time>
      </trkpt>
      <trkpt lat="45.19388" lon="5.54806">
        <ele>1299</ele>
        <time>2019-06-19T22:01:53Z</time>
      </trkpt>
      <trkpt lat="45.19404" lon="5.54802">
        <ele>1299</ele>
        <time>2019-06-19T22:01:57Z</time>
      </trkpt>
      <trkpt lat="45.1941" lon="5.54804">
        <ele>1299</ele>
        <time>2019-06-19T22:01:58Z</time>
      </trkpt>
      <trkpt lat="45.19429" lon="5.54802">
        <ele>1300</ele>
        <time>2019-06-19T22:02:03Z</time>
      </trkpt>
      <trkpt lat="45.19428" lon="5.54798">
        <ele>1300</ele>
        <time>2019-06-19T22:02:03Z</time>
      </trkpt>
      <trkpt lat="45.19381" lon="5.54779">
        <ele>1299</ele>
        <time>2019-06-19T22:02:15Z</time>
      </trkpt>
      <trkpt lat="45.19358" lon="5.54766">
        <ele>1298</ele>
        <time>2019-06-19T22:02:20Z</time>
      </trkpt>
      <trkpt lat="45.19357" lon="5.54738">
        <ele>1295</ele>
        <time>2019-06-19T22:02:25Z</time>
      </trkpt>
      <trkpt lat="45.19368" lon="5.54703">
        <ele>1291</ele>
        <time>2019-06-19T22:02:31Z</time>
      </trkpt>
      <trkpt lat="45.19368" lon="5.54696">
        <ele>1290</ele>
        <time>2019-06-19T22:02:33Z</time>
      </trkpt>
      <trkpt lat="45.19386" lon="5.54683">
        <ele>1290</ele>
        <time>2019-06-19T22:02:37Z</time>
      </trkpt>
      <trkpt lat="45.19415" lon="5.54646">
        <ele>1287</ele>
        <time>2019-06-19T22:02:46Z</time>
      </trkpt>
      <trkpt lat="45.19432" lon="5.54617">
        <ele>1284</ele>
        <time>2019-06-19T22:02:53Z</time>
      </trkpt>
      <trkpt lat="45.19451" lon="5.546">
        <ele>1285</ele>
        <time>2019-06-19T22:02:58Z</time>
      </trkpt>
      <trkpt lat="45.19456" lon="5.54587">
        <ele>1283</ele>
        <time>2019-06-19T22:03:00Z</time>
      </trkpt>
      <trkpt lat="45.19472" lon="5.5456">
        <ele>1282</ele>
        <time>2019-06-19T22:03:06Z</time>
      </trkpt>
      <trkpt lat="45.1949" lon="5.54505">
        <ele>1276</ele>
        <time>2019-06-19T22:03:16Z</time>
      </trkpt>
      <trkpt lat="45.19506" lon="5.54477">
        <ele>1276</ele>
        <time>2019-06-19T22:03:22Z</time>
      </trkpt>
      <trkpt lat="45.19508" lon="5.54441">
        <ele>1271</ele>
        <time>2019-06-19T22:03:28Z</time>
      </trkpt>
      <trkpt lat="45.1953" lon="5.54375">
        <ele>1267</ele>
        <time>2019-06-19T22:03:40Z</time>
      </trkpt>
      <trkpt lat="45.19561" lon="5.54314">
        <ele>1268</ele>
        <time>2019-06-19T22:03:52Z</time>
      </trkpt>
      <trkpt lat="45.19558" lon="5.54308">
        <ele>1267</ele>
        <time>2019-06-19T22:03:54Z</time>
      </trkpt>
      <trkpt lat="45.19551" lon="5.54307">
        <ele>1265</ele>
        <time>2019-06-19T22:03:55Z</time>
      </trkpt>
      <trkpt lat="45.19536" lon="5.54288">
        <ele>1260</ele>
        <time>2019-06-19T22:04:00Z</time>
      </trkpt>
      <trkpt lat="45.19513" lon="5.54212">
        <ele>1249</ele>
        <time>2019-06-19T22:04:13Z</time>
      </trkpt>
      <trkpt lat="45.19514" lon="5.5418">
        <ele>1248</ele>
        <time>2019-06-19T22:04:19Z</time>
      </trkpt>
      <trkpt lat="45.19528" lon="5.54151">
        <ele>1251</ele>
        <time>2019-06-19T22:04:25Z</time>
      </trkpt>
      <trkpt lat="45.19525" lon="5.54113">
        <ele>1251</ele>
        <time>2019-06-19T22:04:31Z</time>
      </trkpt>
      <trkpt lat="45.19512" lon="5.54086">
        <ele>1249</ele>
        <time>2019-06-19T22:04:36Z</time>
      </trkpt>
      <trkpt lat="45.1951" lon="5.54065">
        <ele>1248</ele>
        <time>2019-06-19T22:04:40Z</time>
      </trkpt>
      <trkpt lat="45.19518" lon="5.54033">
        <ele>1250</ele>
        <time>2019-06-19T22:04:45Z</time>
      </trkpt>
      <trkpt lat="45.19523" lon="5.53963">
        <ele>1247</ele>
        <time>2019-06-19T22:04:57Z</time>
      </trkpt>
      <trkpt lat="45.19522" lon="5.53944">
        <ele>1245</ele>
        <time>2019-06-19T22:05:00Z</time>
      </trkpt>
      <trkpt lat="45.19525" lon="5.53933">
        <ele>1244</ele>
        <time>2019-06-19T22:05:02Z</time>
      </trkpt>
      <trkpt lat="45.19527" lon="5.53928">
        <ele>1244</ele>
        <time>2019-06-19T22:05:03Z</time>
      </trkpt>
      <trkpt lat="45.19544" lon="5.5391">
        <ele>1244</ele>
        <time>2019-06-19T22:05:08Z</time>
      </trkpt>
      <trkpt lat="45.19553" lon="5.53905">
        <ele>1244</ele>
        <time>2019-06-19T22:05:10Z</time>
      </trkpt>
      <trkpt lat="45.19575" lon="5.53902">
        <ele>1247</ele>
        <time>2019-06-19T22:05:15Z</time>
      </trkpt>
      <trkpt lat="45.196" lon="5.53895">
        <ele>1249</ele>
        <time>2019-06-19T22:05:21Z</time>
      </trkpt>
      <trkpt lat="45.19642" lon="5.53876">
        <ele>1252</ele>
        <time>2019-06-19T22:05:31Z</time>
      </trkpt>
      <trkpt lat="45.19653" lon="5.53853">
        <ele>1249</ele>
        <time>2019-06-19T22:05:36Z</time>
      </trkpt>
      <trkpt lat="45.1965" lon="5.53839">
        <ele>1246</ele>
        <time>2019-06-19T22:05:38Z</time>
      </trkpt>
      <trkpt lat="45.19632" lon="5.53836">
        <ele>1243</ele>
        <time>2019-06-19T22:05:43Z</time>
      </trkpt>
      <trkpt lat="45.19563" lon="5.53861">
        <ele>1238</ele>
        <time>2019-06-19T22:05:59Z</time>
      </trkpt>
      <trkpt lat="45.19548" lon="5.53863">
        <ele>1237</ele>
        <time>2019-06-19T22:06:03Z</time>
      </trkpt>
      <trkpt lat="45.19531" lon="5.53872">
        <ele>1236</ele>
        <time>2019-06-19T22:06:07Z</time>
      </trkpt>
      <trkpt lat="45.19506" lon="5.53871">
        <ele>1233</ele>
        <time>2019-06-19T22:06:13Z</time>
      </trkpt>
      <trkpt lat="45.19477" lon="5.53878">
        <ele>1231</ele>
        <time>2019-06-19T22:06:20Z</time>
      </trkpt>
      <trkpt lat="45.19461" lon="5.53894">
        <ele>1232</ele>
        <time>2019-06-19T22:06:24Z</time>
      </trkpt>
      <trkpt lat="45.19443" lon="5.53903">
        <ele>1233</ele>
        <time>2019-06-19T22:06:29Z</time>
      </trkpt>
      <trkpt lat="45.19374" lon="5.53911">
        <ele>1227</ele>
        <time>2019-06-19T22:06:45Z</time>
      </trkpt>
      <trkpt lat="45.19338" lon="5.53897">
        <ele>1219</ele>
        <time>2019-06-19T22:06:54Z</time>
      </trkpt>
      <trkpt lat="45.19312" lon="5.53905">
        <ele>1216</ele>
        <time>2019-06-19T22:07:00Z</time>
      </trkpt>
      <trkpt lat="45.19264" lon="5.53876">
        <ele>1201</ele>
        <time>2019-06-19T22:07:12Z</time>
      </trkpt>
      <trkpt lat="45.19239" lon="5.53872">
        <ele>1195</ele>
        <time>2019-06-19T22:07:18Z</time>
      </trkpt>
      <trkpt lat="45.19232" lon="5.53866">
        <ele>1192</ele>
        <time>2019-06-19T22:07:20Z</time>
      </trkpt>
      <trkpt lat="45.1921" lon="5.53864">
        <ele>1187</ele>
        <time>2019-06-19T22:07:25Z</time>
      </trkpt>
      <trkpt lat="45.1917" lon="5.53915">
        <ele>1182</ele>
        <time>2019-06-19T22:07:38Z</time>
      </trkpt>
      <trkpt lat="45.19172" lon="5.53983">
        <ele>1177</ele>
        <time>2019-06-19T22:07:49Z</time>
      </trkpt>
      <trkpt lat="45.19191" lon="5.54048">
        <ele>1180</ele>
        <time>2019-06-19T22:08:00Z</time>
      </trkpt>
      <trkpt lat="45.19187" lon="5.54062">
        <ele>1178</ele>
        <time>2019-06-19T22:08:03Z</time>
      </trkpt>
      <trkpt lat="45.19189" lon="5.54065">
        <ele>1179</ele>
        <time>2019-06-19T22:08:04Z</time>
      </trkpt>
      <trkpt lat="45.19164" lon="5.54119">
        <ele>1168</ele>
        <time>2019-06-19T22:08:14Z</time>
      </trkpt>
      <trkpt lat="45.1916" lon="5.54116">
        <ele>1168</ele>
        <time>2019-06-19T22:08:15Z</time>
      </trkpt>
      <trkpt lat="45.19154" lon="5.54097">
        <ele>1167</ele>
        <time>2019-06-19T22:08:19Z</time>
      </trkpt>
      <trkpt lat="45.19151" lon="5.54094">
        <ele>1166</ele>
        <time>2019-06-19T22:08:20Z</time>
      </trkpt>
      <trkpt lat="45.19135" lon="5.541">
        <ele>1163</ele>
        <time>2019-06-19T22:08:23Z</time>
      </trkpt>
      <trkpt lat="45.19124" lon="5.54127">
        <ele>1160</ele>
        <time>2019-06-19T22:08:29Z</time>
      </trkpt>
      <trkpt lat="45.19122" lon="5.54127">
        <ele>1160</ele>
        <time>2019-06-19T22:08:29Z</time>
      </trkpt>
      <trkpt lat="45.19109" lon="5.54102">
        <ele>1158</ele>
        <time>2019-06-19T22:08:34Z</time>
      </trkpt>
      <trkpt lat="45.19111" lon="5.54082">
        <ele>1159</ele>
        <time>2019-06-19T22:08:37Z</time>
      </trkpt>
      <trkpt lat="45.1911" lon="5.54024">
        <ele>1159</ele>
        <time>2019-06-19T22:08:47Z</time>
      </trkpt>
      <trkpt lat="45.19099" lon="5.54008">
        <ele>1157</ele>
        <time>2019-06-19T22:08:51Z</time>
      </trkpt>
      <trkpt lat="45.19083" lon="5.5397">
        <ele>1154</ele>
        <time>2019-06-19T22:08:58Z</time>
      </trkpt>
      <trkpt lat="45.1907" lon="5.53909">
        <ele>1152</ele>
        <time>2019-06-19T22:09:08Z</time>
      </trkpt>
      <trkpt lat="45.19066" lon="5.53902">
        <ele>1151</ele>
        <time>2019-06-19T22:09:10Z</time>
      </trkpt>
      <trkpt lat="45.19065" lon="5.5389">
        <ele>1150</ele>
        <time>2019-06-19T22:09:12Z</time>
      </trkpt>
      <trkpt lat="45.19052" lon="5.53878">
        <ele>1147</ele>
        <time>2019-06-19T22:09:16Z</time>
      </trkpt>
      <trkpt lat="45.19051" lon="5.53871">
        <ele>1147</ele>
        <time>2019-06-19T22:09:17Z</time>
      </trkpt>
      <trkpt lat="45.1909" lon="5.5382">
        <ele>1154</ele>
        <time>2019-06-19T22:09:29Z</time>
      </trkpt>
      <trkpt lat="45.19092" lon="5.53809">
        <ele>1154</ele>
        <time>2019-06-19T22:09:31Z</time>
      </trkpt>
      <trkpt lat="45.19089" lon="5.53802">
        <ele>1154</ele>
        <time>2019-06-19T22:09:32Z</time>
      </trkpt>
      <trkpt lat="45.19077" lon="5.53803">
        <ele>1152</ele>
        <time>2019-06-19T22:09:35Z</time>
      </trkpt>
      <trkpt lat="45.1908" lon="5.53806">
        <ele>1152</ele>
        <time>2019-06-19T22:09:36Z</time>
      </trkpt>
      <trkpt lat="45.19073" lon="5.53816">
        <ele>1151</ele>
        <time>2019-06-19T22:09:38Z</time>
      </trkpt>
      <trkpt lat="45.19034" lon="5.53842">
        <ele>1143</ele>
        <time>2019-06-19T22:09:48Z</time>
      </trkpt>
      <trkpt lat="45.19012" lon="5.53843">
        <ele>1138</ele>
        <time>2019-06-19T22:09:53Z</time>
      </trkpt>
      <trkpt lat="45.1899" lon="5.5385">
        <ele>1134</ele>
        <time>2019-06-19T22:09:59Z</time>
      </trkpt>
      <trkpt lat="45.18934" lon="5.53874">
        <ele>1124</ele>
        <time>2019-06-19T22:10:12Z</time>
      </trkpt>
      <trkpt lat="45.18923" lon="5.53883">
        <ele>1121</ele>
        <time>2019-06-19T22:10:15Z</time>
      </trkpt>
      <trkpt lat="45.18913" lon="5.53931">
        <ele>1117</ele>
        <time>2019-06-19T22:10:24Z</time>
      </trkpt>
      <trkpt lat="45.18909" lon="5.53938">
        <ele>1117</ele>
        <time>2019-06-19T22:10:25Z</time>
      </trkpt>
      <trkpt lat="45.18875" lon="5.53988">
        <ele>1117</ele>
        <time>2019-06-19T22:10:37Z</time>
      </trkpt>
      <trkpt lat="45.18868" lon="5.53996">
        <ele>1117</ele>
        <time>2019-06-19T22:10:39Z</time>
      </trkpt>
      <trkpt lat="45.18851" lon="5.54008">
        <ele>1119</ele>
        <time>2019-06-19T22:10:43Z</time>
      </trkpt>
      <trkpt lat="45.18836" lon="5.54012">
        <ele>1119</ele>
        <time>2019-06-19T22:10:47Z</time>
      </trkpt>
      <trkpt lat="45.18793" lon="5.54017">
        <ele>1122</ele>
        <time>2019-06-19T22:10:57Z</time>
      </trkpt>
      <trkpt lat="45.18737" lon="5.54029">
        <ele>1127</ele>
        <time>2019-06-19T22:11:10Z</time>
      </trkpt>
      <trkpt lat="45.18698" lon="5.54024">
        <ele>1126</ele>
        <time>2019-06-19T22:11:19Z</time>
      </trkpt>
      <trkpt lat="45.18703" lon="5.54028">
        <ele>1127</ele>
        <time>2019-06-19T22:11:20Z</time>
      </trkpt>
      <trkpt lat="45.18702" lon="5.54031">
        <ele>1128</ele>
        <time>2019-06-19T22:11:21Z</time>
      </trkpt>
      <trkpt lat="45.18701" lon="5.54028">
        <ele>1127</ele>
        <time>2019-06-19T22:11:22Z</time>
      </trkpt>
      <trkpt lat="45.18704" lon="5.5403">
        <ele>1127</ele>
        <time>2019-06-19T22:11:22Z</time>
      </trkpt>
      <trkpt lat="45.18672" lon="5.54027">
        <ele>1127</ele>
        <time>2019-06-19T22:11:30Z</time>
      </trkpt>
      <trkpt lat="45.1866" lon="5.54023">
        <ele>1125</ele>
        <time>2019-06-19T22:11:33Z</time>
      </trkpt>
      <trkpt lat="45.18658" lon="5.5403">
        <ele>1127</ele>
        <time>2019-06-19T22:11:34Z</time>
      </trkpt>
      <trkpt lat="45.18631" lon="5.5402">
        <ele>1121</ele>
        <time>2019-06-19T22:11:40Z</time>
      </trkpt>
      <trkpt lat="45.18576" lon="5.54016">
        <ele>1115</ele>
        <time>2019-06-19T22:11:53Z</time>
      </trkpt>
      <trkpt lat="45.18536" lon="5.54031">
        <ele>1114</ele>
        <time>2019-06-19T22:12:03Z</time>
      </trkpt>
      <trkpt lat="45.18521" lon="5.54046">
        <ele>1113</ele>
        <time>2019-06-19T22:12:07Z</time>
      </trkpt>
      <trkpt lat="45.18515" lon="5.54058">
        <ele>1113</ele>
        <time>2019-06-19T22:12:10Z</time>
      </trkpt>
      <trkpt lat="45.18511" lon="5.54074">
        <ele>1113</ele>
        <time>2019-06-19T22:12:12Z</time>
      </trkpt>
      <trkpt lat="45.1851" lon="5.54171">
        <ele>1108</ele>
        <time>2019-06-19T22:12:28Z</time>
      </trkpt>
      <trkpt lat="45.18504" lon="5.54255">
        <ele>1103</ele>
        <time>2019-06-19T22:12:42Z</time>
      </trkpt>
      <trkpt lat="45.18519" lon="5.54344">
        <ele>1104</ele>
        <time>2019-06-19T22:12:57Z</time>
      </trkpt>
      <trkpt lat="45.18527" lon="5.54424">
        <ele>1100</ele>
        <time>2019-06-19T22:13:11Z</time>
      </trkpt>
      <trkpt lat="45.1853" lon="5.545">
        <ele>1095</ele>
        <time>2019-06-19T22:13:23Z</time>
      </trkpt>
      <trkpt lat="45.18514" lon="5.54589">
        <ele>1093</ele>
        <time>2019-06-19T22:13:38Z</time>
      </trkpt>
      <trkpt lat="45.18514" lon="5.54605">
        <ele>1094</ele>
        <time>2019-06-19T22:13:41Z</time>
      </trkpt>
      <trkpt lat="45.18537" lon="5.54645">
        <ele>1097</ele>
        <time>2019-06-19T22:13:49Z</time>
      </trkpt>
      <trkpt lat="45.18532" lon="5.54674">
        <ele>1097</ele>
        <time>2019-06-19T22:13:54Z</time>
      </trkpt>
      <trkpt lat="45.18538" lon="5.54708">
        <ele>1096</ele>
        <time>2019-06-19T22:14:00Z</time>
      </trkpt>
      <trkpt lat="45.18535" lon="5.54723">
        <ele>1095</ele>
        <time>2019-06-19T22:14:03Z</time>
      </trkpt>
      <trkpt lat="45.18494" lon="5.54786">
        <ele>1086</ele>
        <time>2019-06-19T22:14:17Z</time>
      </trkpt>
      <trkpt lat="45.18463" lon="5.54855">
        <ele>1084</ele>
        <time>2019-06-19T22:14:30Z</time>
      </trkpt>
      <trkpt lat="45.18465" lon="5.54867">
        <ele>1086</ele>
        <time>2019-06-19T22:14:32Z</time>
      </trkpt>
      <trkpt lat="45.18476" lon="5.54878">
        <ele>1088</ele>
        <time>2019-06-19T22:14:35Z</time>
      </trkpt>
      <trkpt lat="45.18495" lon="5.54907">
        <ele>1093</ele>
        <time>2019-06-19T22:14:42Z</time>
      </trkpt>
      <trkpt lat="45.18518" lon="5.54976">
        <ele>1106</ele>
        <time>2019-06-19T22:14:55Z</time>
      </trkpt>
      <trkpt lat="45.18534" lon="5.54998">
        <ele>1109</ele>
        <time>2019-06-19T22:15:00Z</time>
      </trkpt>
      <trkpt lat="45.1858" lon="5.55039">
        <ele>1110</ele>
        <time>2019-06-19T22:15:12Z</time>
      </trkpt>
      <trkpt lat="45.18599" lon="5.55051">
        <ele>1111</ele>
        <time>2019-06-19T22:15:17Z</time>
      </trkpt>
      <trkpt lat="45.18624" lon="5.55063">
        <ele>1110</ele>
        <time>2019-06-19T22:15:23Z</time>
      </trkpt>
      <trkpt lat="45.1867" lon="5.5508">
        <ele>1108</ele>
        <time>2019-06-19T22:15:35Z</time>
      </trkpt>
      <trkpt lat="45.18744" lon="5.55103">
        <ele>1117</ele>
        <time>2019-06-19T22:15:52Z</time>
      </trkpt>
      <trkpt lat="45.18779" lon="5.55121">
        <ele>1121</ele>
        <time>2019-06-19T22:16:01Z</time>
      </trkpt>
      <trkpt lat="45.18791" lon="5.55124">
        <ele>1122</ele>
        <time>2019-06-19T22:16:04Z</time>
      </trkpt>
      <trkpt lat="45.18815" lon="5.55153">
        <ele>1125</ele>
        <time>2019-06-19T22:16:11Z</time>
      </trkpt>
      <trkpt lat="45.1884" lon="5.55167">
        <ele>1127</ele>
        <time>2019-06-19T22:16:17Z</time>
      </trkpt>
      <trkpt lat="45.18871" lon="5.55196">
        <ele>1135</ele>
        <time>2019-06-19T22:16:26Z</time>
      </trkpt>
      <trkpt lat="45.18898" lon="5.55202">
        <ele>1137</ele>
        <time>2019-06-19T22:16:32Z</time>
      </trkpt>
      <trkpt lat="45.18868" lon="5.5514">
        <ele>1132</ele>
        <time>2019-06-19T22:16:45Z</time>
      </trkpt>
      <trkpt lat="45.18851" lon="5.55111">
        <ele>1130</ele>
        <time>2019-06-19T22:16:51Z</time>
      </trkpt>
      <trkpt lat="45.18827" lon="5.5504">
        <ele>1127</ele>
        <time>2019-06-19T22:17:04Z</time>
      </trkpt>
      <trkpt lat="45.18829" lon="5.55038">
        <ele>1128</ele>
        <time>2019-06-19T22:17:05Z</time>
      </trkpt>
      <trkpt lat="45.1884" lon="5.55051">
        <ele>1129</ele>
        <time>2019-06-19T22:17:08Z</time>
      </trkpt>
      <trkpt lat="45.18873" lon="5.55105">
        <ele>1134</ele>
        <time>2019-06-19T22:17:20Z</time>
      </trkpt>
      <trkpt lat="45.18962" lon="5.55197">
        <ele>1142</ele>
        <time>2019-06-19T22:17:45Z</time>
      </trkpt>
      <trkpt lat="45.18996" lon="5.55237">
        <ele>1142</ele>
        <time>2019-06-19T22:17:56Z</time>
      </trkpt>
      <trkpt lat="45.19023" lon="5.55262">
        <ele>1145</ele>
        <time>2019-06-19T22:18:03Z</time>
      </trkpt>
      <trkpt lat="45.19033" lon="5.5527">
        <ele>1147</ele>
        <time>2019-06-19T22:18:06Z</time>
      </trkpt>
      <trkpt lat="45.19066" lon="5.55287">
        <ele>1153</ele>
        <time>2019-06-19T22:18:14Z</time>
      </trkpt>
      <trkpt lat="45.19102" lon="5.55298">
        <ele>1158</ele>
        <time>2019-06-19T22:18:23Z</time>
      </trkpt>
      <trkpt lat="45.19141" lon="5.55324">
        <ele>1164</ele>
        <time>2019-06-19T22:18:33Z</time>
      </trkpt>
      <trkpt lat="45.19146" lon="5.55335">
        <ele>1164</ele>
        <time>2019-06-19T22:18:35Z</time>
      </trkpt>
      <trkpt lat="45.19144" lon="5.55344">
        <ele>1165</ele>
        <time>2019-06-19T22:18:36Z</time>
      </trkpt>
      <trkpt lat="45.19142" lon="5.55347">
        <ele>1165</ele>
        <time>2019-06-19T22:18:37Z</time>
      </trkpt>
      <trkpt lat="45.19122" lon="5.55354">
        <ele>1162</ele>
        <time>2019-06-19T22:18:42Z</time>
      </trkpt>
      <trkpt lat="45.19114" lon="5.55361">
        <ele>1162</ele>
        <time>2019-06-19T22:18:44Z</time>
      </trkpt>
      <trkpt lat="45.19108" lon="5.55373">
        <ele>1162</ele>
        <time>2019-06-19T22:18:47Z</time>
      </trkpt>
      <trkpt lat="45.19103" lon="5.554">
        <ele>1163</ele>
        <time>2019-06-19T22:18:51Z</time>
      </trkpt>
      <trkpt lat="45.19106" lon="5.55419">
        <ele>1165</ele>
        <time>2019-06-19T22:18:54Z</time>
      </trkpt>
      <trkpt lat="45.19104" lon="5.55425">
        <ele>1165</ele>
        <time>2019-06-19T22:18:55Z</time>
      </trkpt>
      <trkpt lat="45.19112" lon="5.55454">
        <ele>1167</ele>
        <time>2019-06-19T22:19:01Z</time>
      </trkpt>
      <trkpt lat="45.19113" lon="5.55518">
        <ele>1168</ele>
        <time>2019-06-19T22:19:11Z</time>
      </trkpt>
      <trkpt lat="45.19128" lon="5.55585">
        <ele>1171</ele>
        <time>2019-06-19T22:19:23Z</time>
      </trkpt>
      <trkpt lat="45.1915" lon="5.55602">
        <ele>1175</ele>
        <time>2019-06-19T22:19:29Z</time>
      </trkpt>
      <trkpt lat="45.19152" lon="5.55609">
        <ele>1175</ele>
        <time>2019-06-19T22:19:30Z</time>
      </trkpt>
      <trkpt lat="45.19165" lon="5.55619">
        <ele>1176</ele>
        <time>2019-06-19T22:19:33Z</time>
      </trkpt>
      <trkpt lat="45.19175" lon="5.5562">
        <ele>1177</ele>
        <time>2019-06-19T22:19:36Z</time>
      </trkpt>
      <trkpt lat="45.19191" lon="5.55614">
        <ele>1179</ele>
        <time>2019-06-19T22:19:39Z</time>
      </trkpt>
      <trkpt lat="45.19211" lon="5.55613">
        <ele>1181</ele>
        <time>2019-06-19T22:19:44Z</time>
      </trkpt>
      <trkpt lat="45.19219" lon="5.5561">
        <ele>1182</ele>
        <time>2019-06-19T22:19:46Z</time>
      </trkpt>
      <trkpt lat="45.19252" lon="5.55578">
        <ele>1186</ele>
        <time>2019-06-19T22:19:55Z</time>
      </trkpt>
      <trkpt lat="45.19263" lon="5.55578">
        <ele>1187</ele>
        <time>2019-06-19T22:19:58Z</time>
      </trkpt>
      <trkpt lat="45.19263" lon="5.55575">
        <ele>1187</ele>
        <time>2019-06-19T22:19:58Z</time>
      </trkpt>
      <trkpt lat="45.19263" lon="5.55609">
        <ele>1186</ele>
        <time>2019-06-19T22:20:04Z</time>
      </trkpt>
      <trkpt lat="45.19289" lon="5.55676">
        <ele>1185</ele>
        <time>2019-06-19T22:20:17Z</time>
      </trkpt>
      <trkpt lat="45.19315" lon="5.55661">
        <ele>1186</ele>
        <time>2019-06-19T22:20:23Z</time>
      </trkpt>
      <trkpt lat="45.19334" lon="5.55636">
        <ele>1188</ele>
        <time>2019-06-19T22:20:29Z</time>
      </trkpt>
      <trkpt lat="45.19368" lon="5.55629">
        <ele>1191</ele>
        <time>2019-06-19T22:20:37Z</time>
      </trkpt>
      <trkpt lat="45.19395" lon="5.55637">
        <ele>1192</ele>
        <time>2019-06-19T22:20:44Z</time>
      </trkpt>
      <trkpt lat="45.1942" lon="5.55631">
        <ele>1194</ele>
        <time>2019-06-19T22:20:50Z</time>
      </trkpt>
      <trkpt lat="45.1943" lon="5.5562">
        <ele>1196</ele>
        <time>2019-06-19T22:20:53Z</time>
      </trkpt>
      <trkpt lat="45.19436" lon="5.55623">
        <ele>1197</ele>
        <time>2019-06-19T22:20:54Z</time>
      </trkpt>
      <trkpt lat="45.19449" lon="5.5564">
        <ele>1198</ele>
        <time>2019-06-19T22:20:58Z</time>
      </trkpt>
      <trkpt lat="45.19454" lon="5.55651">
        <ele>1198</ele>
        <time>2019-06-19T22:21:00Z</time>
      </trkpt>
      <trkpt lat="45.19491" lon="5.55614">
        <ele>1205</ele>
        <time>2019-06-19T22:21:11Z</time>
      </trkpt>
      <trkpt lat="45.19492" lon="5.55608">
        <ele>1206</ele>
        <time>2019-06-19T22:21:12Z</time>
      </trkpt>
      <trkpt lat="45.19498" lon="5.55614">
        <ele>1206</ele>
        <time>2019-06-19T22:21:14Z</time>
      </trkpt>
      <trkpt lat="45.19498" lon="5.55603">
        <ele>1207</ele>
        <time>2019-06-19T22:21:15Z</time>
      </trkpt>
      <trkpt lat="45.19501" lon="5.55595">
        <ele>1208</ele>
        <time>2019-06-19T22:21:17Z</time>
      </trkpt>
      <trkpt lat="45.19524" lon="5.55586">
        <ele>1213</ele>
        <time>2019-06-19T22:21:23Z</time>
      </trkpt>
      <trkpt lat="45.19534" lon="5.55585">
        <ele>1215</ele>
        <time>2019-06-19T22:21:25Z</time>
      </trkpt>
      <trkpt lat="45.1954" lon="5.55578">
        <ele>1217</ele>
        <time>2019-06-19T22:21:27Z</time>
      </trkpt>
      <trkpt lat="45.19554" lon="5.55573">
        <ele>1220</ele>
        <time>2019-06-19T22:21:30Z</time>
      </trkpt>
      <trkpt lat="45.19596" lon="5.55529">
        <ele>1230</ele>
        <time>2019-06-19T22:21:42Z</time>
      </trkpt>
      <trkpt lat="45.19598" lon="5.5553">
        <ele>1231</ele>
        <time>2019-06-19T22:21:43Z</time>
      </trkpt>
      <trkpt lat="45.19592" lon="5.55533">
        <ele>1230</ele>
        <time>2019-06-19T22:21:44Z</time>
      </trkpt>
      <trkpt lat="45.19585" lon="5.55533">
        <ele>1229</ele>
        <time>2019-06-19T22:21:46Z</time>
      </trkpt>
      <trkpt lat="45.19576" lon="5.55526">
        <ele>1228</ele>
        <time>2019-06-19T22:21:48Z</time>
      </trkpt>
      <trkpt lat="45.19576" lon="5.55516">
        <ele>1228</ele>
        <time>2019-06-19T22:21:50Z</time>
      </trkpt>
      <trkpt lat="45.1959" lon="5.55493">
        <ele>1233</ele>
        <time>2019-06-19T22:21:55Z</time>
      </trkpt>
      <trkpt lat="45.1959" lon="5.5548">
        <ele>1235</ele>
        <time>2019-06-19T22:21:57Z</time>
      </trkpt>
      <trkpt lat="45.19569" lon="5.5544">
        <ele>1237</ele>
        <time>2019-06-19T22:22:05Z</time>
      </trkpt>
      <trkpt lat="45.19577" lon="5.55401">
        <ele>1243</ele>
        <time>2019-06-19T22:22:12Z</time>
      </trkpt>
      <trkpt lat="45.19583" lon="5.55396">
        <ele>1245</ele>
        <time>2019-06-19T22:22:14Z</time>
      </trkpt>
      <trkpt lat="45.19608" lon="5.5539">
        <ele>1249</ele>
        <time>2019-06-19T22:22:20Z</time>
      </trkpt>
      <trkpt lat="45.19624" lon="5.55396">
        <ele>1250</ele>
        <time>2019-06-19T22:22:23Z</time>
      </trkpt>
      <trkpt lat="45.1964" lon="5.5541">
        <ele>1250</ele>
        <time>2019-06-19T22:22:28Z</time>
      </trkpt>
      <trkpt lat="45.19665" lon="5.5546">
        <ele>1247</ele>
        <time>2019-06-19T22:22:38Z</time>
      </trkpt>
      <trkpt lat="45.1968" lon="5.55479">
        <ele>1245</ele>
        <time>2019-06-19T22:22:43Z</time>
      </trkpt>
      <trkpt lat="45.19731" lon="5.5553">
        <ele>1244</ele>
        <time>2019-06-19T22:22:57Z</time>
      </trkpt>
      <trkpt lat="45.19756" lon="5.55535">
        <ele>1245</ele>
        <time>2019-06-19T22:23:03Z</time>
      </trkpt>
      <trkpt lat="45.19768" lon="5.55542">
        <ele>1246</ele>
        <time>2019-06-19T22:23:06Z</time>
      </trkpt>
      <trkpt lat="45.19772" lon="5.55552">
        <ele>1246</ele>
        <time>2019-06-19T22:23:08Z</time>
      </trkpt>
      <trkpt lat="45.19775" lon="5.55573">
        <ele>1244</ele>
        <time>2019-06-19T22:23:11Z</time>
      </trkpt>
      <trkpt lat="45.19793" lon="5.55614">
        <ele>1243</ele>
        <time>2019-06-19T22:23:19Z</time>
      </trkpt>
      <trkpt lat="45.19793" lon="5.55642">
        <ele>1241</ele>
        <time>2019-06-19T22:23:24Z</time>
      </trkpt>
      <trkpt lat="45.1984" lon="5.55713">
        <ele>1237</ele>
        <time>2019-06-19T22:23:40Z</time>
      </trkpt>
      <trkpt lat="45.19871" lon="5.55723">
        <ele>1238</ele>
        <time>2019-06-19T22:23:47Z</time>
      </trkpt>
      <trkpt lat="45.19883" lon="5.55714">
        <ele>1239</ele>
        <time>2019-06-19T22:23:51Z</time>
      </trkpt>
      <trkpt lat="45.19907" lon="5.5571">
        <ele>1241</ele>
        <time>2019-06-19T22:23:56Z</time>
      </trkpt>
      <trkpt lat="45.19916" lon="5.55714">
        <ele>1241</ele>
        <time>2019-06-19T22:23:58Z</time>
      </trkpt>
      <trkpt lat="45.19928" lon="5.55726">
        <ele>1240</ele>
        <time>2019-06-19T22:24:02Z</time>
      </trkpt>
      <trkpt lat="45.19955" lon="5.55723">
        <ele>1243</ele>
        <time>2019-06-19T22:24:08Z</time>
      </trkpt>
      <trkpt lat="45.20005" lon="5.55733">
        <ele>1246</ele>
        <time>2019-06-19T22:24:20Z</time>
      </trkpt>
      <trkpt lat="45.20026" lon="5.55743">
        <ele>1247</ele>
        <time>2019-06-19T22:24:25Z</time>
      </trkpt>
      <trkpt lat="45.20049" lon="5.55743">
        <ele>1250</ele>
        <time>2019-06-19T22:24:31Z</time>
      </trkpt>
      <trkpt lat="45.20067" lon="5.55747">
        <ele>1251</ele>
        <time>2019-06-19T22:24:35Z</time>
      </trkpt>
      <trkpt lat="45.20079" lon="5.55754">
        <ele>1253</ele>
        <time>2019-06-19T22:24:38Z</time>
      </trkpt>
      <trkpt lat="45.20084" lon="5.5576">
        <ele>1253</ele>
        <time>2019-06-19T22:24:39Z</time>
      </trkpt>
      <trkpt lat="45.20087" lon="5.5577">
        <ele>1254</ele>
        <time>2019-06-19T22:24:41Z</time>
      </trkpt>
      <trkpt lat="45.20085" lon="5.55777">
        <ele>1254</ele>
        <time>2019-06-19T22:24:42Z</time>
      </trkpt>
      <trkpt lat="45.20068" lon="5.55797">
        <ele>1252</ele>
        <time>2019-06-19T22:24:48Z</time>
      </trkpt>
      <trkpt lat="45.20061" lon="5.55811">
        <ele>1251</ele>
        <time>2019-06-19T22:24:50Z</time>
      </trkpt>
      <trkpt lat="45.20061" lon="5.55816">
        <ele>1251</ele>
        <time>2019-06-19T22:24:51Z</time>
      </trkpt>
      <trkpt lat="45.20064" lon="5.5582">
        <ele>1252</ele>
        <time>2019-06-19T22:24:52Z</time>
      </trkpt>
      <trkpt lat="45.20094" lon="5.55838">
        <ele>1256</ele>
        <time>2019-06-19T22:25:00Z</time>
      </trkpt>
      <trkpt lat="45.20174" lon="5.55836">
        <ele>1262</ele>
        <time>2019-06-19T22:25:18Z</time>
      </trkpt>
      <trkpt lat="45.2018" lon="5.55843">
        <ele>1262</ele>
        <time>2019-06-19T22:25:20Z</time>
      </trkpt>
      <trkpt lat="45.20185" lon="5.55855">
        <ele>1263</ele>
        <time>2019-06-19T22:25:23Z</time>
      </trkpt>
      <trkpt lat="45.20194" lon="5.55896">
        <ele>1263</ele>
        <time>2019-06-19T22:25:30Z</time>
      </trkpt>
      <trkpt lat="45.20191" lon="5.5593">
        <ele>1263</ele>
        <time>2019-06-19T22:25:35Z</time>
      </trkpt>
      <trkpt lat="45.20222" lon="5.55937">
        <ele>1264</ele>
        <time>2019-06-19T22:25:43Z</time>
      </trkpt>
      <trkpt lat="45.20261" lon="5.55957">
        <ele>1266</ele>
        <time>2019-06-19T22:25:52Z</time>
      </trkpt>
      <trkpt lat="45.20316" lon="5.55965">
        <ele>1270</ele>
        <time>2019-06-19T22:26:05Z</time>
      </trkpt>
      <trkpt lat="45.20355" lon="5.55946">
        <ele>1272</ele>
        <time>2019-06-19T22:26:15Z</time>
      </trkpt>
      <trkpt lat="45.2039" lon="5.55933">
        <ele>1274</ele>
        <time>2019-06-19T22:26:23Z</time>
      </trkpt>
      <trkpt lat="45.20414" lon="5.55927">
        <ele>1276</ele>
        <time>2019-06-19T22:26:29Z</time>
      </trkpt>
      <trkpt lat="45.20455" lon="5.5593">
        <ele>1279</ele>
        <time>2019-06-19T22:26:39Z</time>
      </trkpt>
      <trkpt lat="45.20494" lon="5.55938">
        <ele>1281</ele>
        <time>2019-06-19T22:26:48Z</time>
      </trkpt>
      <trkpt lat="45.20549" lon="5.55962">
        <ele>1283</ele>
        <time>2019-06-19T22:27:01Z</time>
      </trkpt>
      <trkpt lat="45.20565" lon="5.55965">
        <ele>1284</ele>
        <time>2019-06-19T22:27:05Z</time>
      </trkpt>
      <trkpt lat="45.20596" lon="5.55962">
        <ele>1285</ele>
        <time>2019-06-19T22:27:12Z</time>
      </trkpt>
      <trkpt lat="45.20621" lon="5.55953">
        <ele>1287</ele>
        <time>2019-06-19T22:27:18Z</time>
      </trkpt>
      <trkpt lat="45.20637" lon="5.55944">
        <ele>1287</ele>
        <time>2019-06-19T22:27:22Z</time>
      </trkpt>
      <trkpt lat="45.20679" lon="5.55874">
        <ele>1285</ele>
        <time>2019-06-19T22:27:37Z</time>
      </trkpt>
      <trkpt lat="45.20674" lon="5.55873">
        <ele>1285</ele>
        <time>2019-06-19T22:27:39Z</time>
      </trkpt>
      <trkpt lat="45.20673" lon="5.55865">
        <ele>1285</ele>
        <time>2019-06-19T22:27:40Z</time>
      </trkpt>
      <trkpt lat="45.20683" lon="5.55831">
        <ele>1284</ele>
        <time>2019-06-19T22:27:46Z</time>
      </trkpt>
      <trkpt lat="45.20718" lon="5.55778">
        <ele>1286</ele>
        <time>2019-06-19T22:27:58Z</time>
      </trkpt>
      <trkpt lat="45.20757" lon="5.55806">
        <ele>1284</ele>
        <time>2019-06-19T22:28:08Z</time>
      </trkpt>
      <trkpt lat="45.20813" lon="5.55804">
        <ele>1286</ele>
        <time>2019-06-19T22:28:21Z</time>
      </trkpt>
      <trkpt lat="45.20864" lon="5.55832">
        <ele>1288</ele>
        <time>2019-06-19T22:28:34Z</time>
      </trkpt>
      <trkpt lat="45.20879" lon="5.55832">
        <ele>1289</ele>
        <time>2019-06-19T22:28:38Z</time>
      </trkpt>
      <trkpt lat="45.20892" lon="5.55826">
        <ele>1291</ele>
        <time>2019-06-19T22:28:41Z</time>
      </trkpt>
      <trkpt lat="45.20906" lon="5.55825">
        <ele>1292</ele>
        <time>2019-06-19T22:28:44Z</time>
      </trkpt>
      <trkpt lat="45.20924" lon="5.5582">
        <ele>1294</ele>
        <time>2019-06-19T22:28:48Z</time>
      </trkpt>
      <trkpt lat="45.20934" lon="5.55812">
        <ele>1295</ele>
        <time>2019-06-19T22:28:51Z</time>
      </trkpt>
      <trkpt lat="45.20955" lon="5.55779">
        <ele>1297</ele>
        <time>2019-06-19T22:28:58Z</time>
      </trkpt>
      <trkpt lat="45.20965" lon="5.55769">
        <ele>1299</ele>
        <time>2019-06-19T22:29:01Z</time>
      </trkpt>
      <trkpt lat="45.20991" lon="5.55763">
        <ele>1301</ele>
        <time>2019-06-19T22:29:07Z</time>
      </trkpt>
      <trkpt lat="45.21004" lon="5.55763">
        <ele>1302</ele>
        <time>2019-06-19T22:29:10Z</time>
      </trkpt>
      <trkpt lat="45.21017" lon="5.55778">
        <ele>1301</ele>
        <time>2019-06-19T22:29:14Z</time>
      </trkpt>
      <trkpt lat="45.21054" lon="5.55788">
        <ele>1303</ele>
        <time>2019-06-19T22:29:23Z</time>
      </trkpt>
      <trkpt lat="45.21072" lon="5.55819">
        <ele>1302</ele>
        <time>2019-06-19T22:29:30Z</time>
      </trkpt>
      <trkpt lat="45.21099" lon="5.55842">
        <ele>1301</ele>
        <time>2019-06-19T22:29:37Z</time>
      </trkpt>
      <trkpt lat="45.21125" lon="5.55855">
        <ele>1301</ele>
        <time>2019-06-19T22:29:43Z</time>
      </trkpt>
      <trkpt lat="45.21169" lon="5.5586">
        <ele>1300</ele>
        <time>2019-06-19T22:29:54Z</time>
      </trkpt>
      <trkpt lat="45.21177" lon="5.55863">
        <ele>1301</ele>
        <time>2019-06-19T22:29:56Z</time>
      </trkpt>
      <trkpt lat="45.21182" lon="5.5587">
        <ele>1301</ele>
        <time>2019-06-19T22:29:57Z</time>
      </trkpt>
      <trkpt lat="45.21187" lon="5.55884">
        <ele>1300</ele>
        <time>2019-06-19T22:30:00Z</time>
      </trkpt>
      <trkpt lat="45.21193" lon="5.55889">
        <ele>1300</ele>
        <time>2019-06-19T22:30:01Z</time>
      </trkpt>
      <trkpt lat="45.21199" lon="5.55888">
        <ele>1300</ele>
        <time>2019-06-19T22:30:03Z</time>
      </trkpt>
      <trkpt lat="45.2124" lon="5.55857">
        <ele>1305</ele>
        <time>2019-06-19T22:30:14Z</time>
      </trkpt>
      <trkpt lat="45.21246" lon="5.55855">
        <ele>1306</ele>
        <time>2019-06-19T22:30:15Z</time>
      </trkpt>
      <trkpt lat="45.21268" lon="5.55858">
        <ele>1307</ele>
        <time>2019-06-19T22:30:20Z</time>
      </trkpt>
      <trkpt lat="45.21276" lon="5.55864">
        <ele>1308</ele>
        <time>2019-06-19T22:30:22Z</time>
      </trkpt>
      <trkpt lat="45.21287" lon="5.55884">
        <ele>1307</ele>
        <time>2019-06-19T22:30:27Z</time>
      </trkpt>
      <trkpt lat="45.21291" lon="5.55911">
        <ele>1304</ele>
        <time>2019-06-19T22:30:31Z</time>
      </trkpt>
      <trkpt lat="45.2129" lon="5.55933">
        <ele>1303</ele>
        <time>2019-06-19T22:30:35Z</time>
      </trkpt>
      <trkpt lat="45.21294" lon="5.55959">
        <ele>1302</ele>
        <time>2019-06-19T22:30:39Z</time>
      </trkpt>
      <trkpt lat="45.21303" lon="5.55986">
        <ele>1302</ele>
        <time>2019-06-19T22:30:44Z</time>
      </trkpt>
      <trkpt lat="45.21356" lon="5.56001">
        <ele>1300</ele>
        <time>2019-06-19T22:30:57Z</time>
      </trkpt>
      <trkpt lat="45.21368" lon="5.56011">
        <ele>1300</ele>
        <time>2019-06-19T22:31:00Z</time>
      </trkpt>
      <trkpt lat="45.21398" lon="5.56012">
        <ele>1298</ele>
        <time>2019-06-19T22:31:07Z</time>
      </trkpt>
      <trkpt lat="45.21478" lon="5.56004">
        <ele>1298</ele>
        <time>2019-06-19T22:31:26Z</time>
      </trkpt>
      <trkpt lat="45.21634" lon="5.55994">
        <ele>1302</ele>
        <time>2019-06-19T22:32:02Z</time>
      </trkpt>
      <trkpt lat="45.21666" lon="5.55996">
        <ele>1304</ele>
        <time>2019-06-19T22:32:10Z</time>
      </trkpt>
      <trkpt lat="45.21808" lon="5.56025">
        <ele>1299</ele>
        <time>2019-06-19T22:32:43Z</time>
      </trkpt>
      <trkpt lat="45.21827" lon="5.56043">
        <ele>1298</ele>
        <time>2019-06-19T22:32:48Z</time>
      </trkpt>
      <trkpt lat="45.21847" lon="5.56101">
        <ele>1300</ele>
        <time>2019-06-19T22:32:59Z</time>
      </trkpt>
      <trkpt lat="45.21887" lon="5.56174">
        <ele>1305</ele>
        <time>2019-06-19T22:33:14Z</time>
      </trkpt>
      <trkpt lat="45.21945" lon="5.56269">
        <ele>1310</ele>
        <time>2019-06-19T22:33:35Z</time>
      </trkpt>
      <trkpt lat="45.21981" lon="5.56339">
        <ele>1315</ele>
        <time>2019-06-19T22:33:49Z</time>
      </trkpt>
      <trkpt lat="45.22002" lon="5.56396">
        <ele>1319</ele>
        <time>2019-06-19T22:34:00Z</time>
      </trkpt>
      <trkpt lat="45.22041" lon="5.56461">
        <ele>1322</ele>
        <time>2019-06-19T22:34:14Z</time>
      </trkpt>
      <trkpt lat="45.22065" lon="5.56511">
        <ele>1323</ele>
        <time>2019-06-19T22:34:24Z</time>
      </trkpt>
      <trkpt lat="45.22075" lon="5.56539">
        <ele>1324</ele>
        <time>2019-06-19T22:34:29Z</time>
      </trkpt>
      <trkpt lat="45.22085" lon="5.56594">
        <ele>1325</ele>
        <time>2019-06-19T22:34:38Z</time>
      </trkpt>
      <trkpt lat="45.22086" lon="5.56634">
        <ele>1326</ele>
        <time>2019-06-19T22:34:45Z</time>
      </trkpt>
      <trkpt lat="45.22083" lon="5.56647">
        <ele>1327</ele>
        <time>2019-06-19T22:34:47Z</time>
      </trkpt>
      <trkpt lat="45.22065" lon="5.56685">
        <ele>1331</ele>
        <time>2019-06-19T22:34:55Z</time>
      </trkpt>
      <trkpt lat="45.22042" lon="5.5672">
        <ele>1337</ele>
        <time>2019-06-19T22:35:03Z</time>
      </trkpt>
      <trkpt lat="45.22011" lon="5.56821">
        <ele>1344</ele>
        <time>2019-06-19T22:35:21Z</time>
      </trkpt>
      <trkpt lat="45.21996" lon="5.56856">
        <ele>1348</ele>
        <time>2019-06-19T22:35:27Z</time>
      </trkpt>
      <trkpt lat="45.2196" lon="5.5689">
        <ele>1351</ele>
        <time>2019-06-19T22:35:38Z</time>
      </trkpt>
      <trkpt lat="45.21916" lon="5.56917">
        <ele>1351</ele>
        <time>2019-06-19T22:35:49Z</time>
      </trkpt>
      <trkpt lat="45.21862" lon="5.56945">
        <ele>1347</ele>
        <time>2019-06-19T22:36:02Z</time>
      </trkpt>
      <trkpt lat="45.21794" lon="5.5695">
        <ele>1339</ele>
        <time>2019-06-19T22:36:18Z</time>
      </trkpt>
      <trkpt lat="45.21708" lon="5.56988">
        <ele>1333</ele>
        <time>2019-06-19T22:36:39Z</time>
      </trkpt>
      <trkpt lat="45.21629" lon="5.57002">
        <ele>1324</ele>
        <time>2019-06-19T22:36:58Z</time>
      </trkpt>
      <trkpt lat="45.21479" lon="5.5692">
        <ele>1308</ele>
        <time>2019-06-19T22:37:35Z</time>
      </trkpt>
      <trkpt lat="45.21456" lon="5.56926">
        <ele>1309</ele>
        <time>2019-06-19T22:37:41Z</time>
      </trkpt>
      <trkpt lat="45.21496" lon="5.56951">
        <ele>1305</ele>
        <time>2019-06-19T22:37:51Z</time>
      </trkpt>
      <trkpt lat="45.21531" lon="5.56991">
        <ele>1306</ele>
        <time>2019-06-19T22:38:01Z</time>
      </trkpt>
      <trkpt lat="45.21497" lon="5.57047">
        <ele>1299</ele>
        <time>2019-06-19T22:38:14Z</time>
      </trkpt>
      <trkpt lat="45.21406" lon="5.57107">
        <ele>1284</ele>
        <time>2019-06-19T22:38:37Z</time>
      </trkpt>
      <trkpt lat="45.21456" lon="5.57158">
        <ele>1287</ele>
        <time>2019-06-19T22:38:51Z</time>
      </trkpt>
      <trkpt lat="45.21495" lon="5.5717">
        <ele>1292</ele>
        <time>2019-06-19T22:39:01Z</time>
      </trkpt>
      <trkpt lat="45.21547" lon="5.57232">
        <ele>1289</ele>
        <time>2019-06-19T22:39:17Z</time>
      </trkpt>
      <trkpt lat="45.21594" lon="5.57226">
        <ele>1297</ele>
        <time>2019-06-19T22:39:28Z</time>
      </trkpt>
      <trkpt lat="45.21637" lon="5.57163">
        <ele>1306</ele>
        <time>2019-06-19T22:39:42Z</time>
      </trkpt>
      <trkpt lat="45.21703" lon="5.57138">
        <ele>1312</ele>
        <time>2019-06-19T22:39:58Z</time>
      </trkpt>
      <trkpt lat="45.21746" lon="5.57178">
        <ele>1307</ele>
        <time>2019-06-19T22:40:10Z</time>
      </trkpt>
      <trkpt lat="45.21823" lon="5.57201">
        <ele>1312</ele>
        <time>2019-06-19T22:40:28Z</time>
      </trkpt>
      <trkpt lat="45.21875" lon="5.57299">
        <ele>1315</ele>
        <time>2019-06-19T22:40:49Z</time>
      </trkpt>
      <trkpt lat="45.21761" lon="5.57357">
        <ele>1310</ele>
        <time>2019-06-19T22:41:17Z</time>
      </trkpt>
      <trkpt lat="45.21751" lon="5.57397">
        <ele>1308</ele>
        <time>2019-06-19T22:41:24Z</time>
      </trkpt>
      <trkpt lat="45.21773" lon="5.57445">
        <ele>1302</ele>
        <time>2019-06-19T22:41:33Z</time>
      </trkpt>
      <trkpt lat="45.21836" lon="5.57506">
        <ele>1302</ele>
        <time>2019-06-19T22:41:51Z</time>
      </trkpt>
      <trkpt lat="45.21873" lon="5.57516">
        <ele>1311</ele>
        <time>2019-06-19T22:42:00Z</time>
      </trkpt>
      <trkpt lat="45.21878" lon="5.5757">
        <ele>1302</ele>
        <time>2019-06-19T22:42:09Z</time>
      </trkpt>
      <trkpt lat="45.21905" lon="5.57625">
        <ele>1297</ele>
        <time>2019-06-19T22:42:20Z</time>
      </trkpt>
      <trkpt lat="45.21936" lon="5.57641">
        <ele>1300</ele>
        <time>2019-06-19T22:42:27Z</time>
      </trkpt>
      <trkpt lat="45.21982" lon="5.57659">
        <ele>1305</ele>
        <time>2019-06-19T22:42:39Z</time>
      </trkpt>
      <trkpt lat="45.22031" lon="5.57696">
        <ele>1301</ele>
        <time>2019-06-19T22:42:52Z</time>
      </trkpt>
      <trkpt lat="45.22118" lon="5.57727">
        <ele>1304</ele>
        <time>2019-06-19T22:43:13Z</time>
      </trkpt>
      <trkpt lat="45.22202" lon="5.57776">
        <ele>1299</ele>
        <time>2019-06-19T22:43:34Z</time>
      </trkpt>
      <trkpt lat="45.22299" lon="5.57824">
        <ele>1286</ele>
        <time>2019-06-19T22:43:58Z</time>
      </trkpt>
      <trkpt lat="45.22349" lon="5.57812">
        <ele>1294</ele>
        <time>2019-06-19T22:44:10Z</time>
      </trkpt>
      <trkpt lat="45.22448" lon="5.5787">
        <ele>1285</ele>
        <time>2019-06-19T22:44:35Z</time>
      </trkpt>
      <trkpt lat="45.22545" lon="5.57931">
        <ele>1282</ele>
        <time>2019-06-19T22:44:59Z</time>
      </trkpt>
      <trkpt lat="45.22625" lon="5.57965">
        <ele>1287</ele>
        <time>2019-06-19T22:45:19Z</time>
      </trkpt>
      <trkpt lat="45.22706" lon="5.58043">
        <ele>1284</ele>
        <time>2019-06-19T22:45:42Z</time>
      </trkpt>
      <trkpt lat="45.22684" lon="5.5809">
        <ele>1277</ele>
        <time>2019-06-19T22:45:51Z</time>
      </trkpt>
      <trkpt lat="45.22616" lon="5.58059">
        <ele>1273</ele>
        <time>2019-06-19T22:46:08Z</time>
      </trkpt>
      <trkpt lat="45.22592" lon="5.58104">
        <ele>1275</ele>
        <time>2019-06-19T22:46:17Z</time>
      </trkpt>
      <trkpt lat="45.22549" lon="5.58127">
        <ele>1279</ele>
        <time>2019-06-19T22:46:28Z</time>
      </trkpt>
      <trkpt lat="45.22227" lon="5.58162">
        <ele>1277</ele>
        <time>2019-06-19T22:47:43Z</time>
      </trkpt>
      <trkpt lat="45.22022" lon="5.5818">
        <ele>1288</ele>
        <time>2019-06-19T22:48:31Z</time>
      </trkpt>
      <trkpt lat="45.2193" lon="5.58171">
        <ele>1283</ele>
        <time>2019-06-19T22:48:53Z</time>
      </trkpt>
      <trkpt lat="45.21817" lon="5.58229">
        <ele>1304</ele>
        <time>2019-06-19T22:49:21Z</time>
      </trkpt>
      <trkpt lat="45.21665" lon="5.58228">
        <ele>1314</ele>
        <time>2019-06-19T22:49:56Z</time>
      </trkpt>
      <trkpt lat="45.2156" lon="5.58185">
        <ele>1314</ele>
        <time>2019-06-19T22:50:22Z</time>
      </trkpt>
      <trkpt lat="45.21759" lon="5.58362">
        <ele>1341</ele>
        <time>2019-06-19T22:51:17Z</time>
      </trkpt>
      <trkpt lat="45.2159" lon="5.58308">
        <ele>1365</ele>
        <time>2019-06-19T22:51:57Z</time>
      </trkpt>
      <trkpt lat="45.21401" lon="5.58264">
        <ele>1372</ele>
        <time>2019-06-19T22:52:42Z</time>
      </trkpt>
      <trkpt lat="45.21306" lon="5.58276">
        <ele>1387</ele>
        <time>2019-06-19T22:53:04Z</time>
      </trkpt>
      <trkpt lat="45.21133" lon="5.58223">
        <ele>1386</ele>
        <time>2019-06-19T22:53:45Z</time>
      </trkpt>
      <trkpt lat="45.20873" lon="5.58157">
        <ele>1403</ele>
        <time>2019-06-19T22:54:47Z</time>
      </trkpt>
      <trkpt lat="45.20755" lon="5.58238">
        <ele>1423</ele>
        <time>2019-06-19T22:55:18Z</time>
      </trkpt>
      <trkpt lat="45.2066" lon="5.581">
        <ele>1383</ele>
        <time>2019-06-19T22:55:49Z</time>
      </trkpt>
      <trkpt lat="45.20593" lon="5.58228">
        <ele>1394</ele>
        <time>2019-06-19T22:56:16Z</time>
      </trkpt>
      <trkpt lat="45.20436" lon="5.5831">
        <ele>1406</ele>
        <time>2019-06-19T22:56:55Z</time>
      </trkpt>
      <trkpt lat="45.2032" lon="5.58139">
        <ele>1413</ele>
        <time>2019-06-19T22:57:34Z</time>
      </trkpt>
      <trkpt lat="45.20274" lon="5.58002">
        <ele>1400</ele>
        <time>2019-06-19T22:57:59Z</time>
      </trkpt>
      <trkpt lat="45.20073" lon="5.5797">
        <ele>1410</ele>
        <time>2019-06-19T22:58:46Z</time>
      </trkpt>
      <trkpt lat="45.19893" lon="5.57917">
        <ele>1426</ele>
        <time>2019-06-19T22:59:29Z</time>
      </trkpt>
      <trkpt lat="45.19758" lon="5.57891">
        <ele>1428</ele>
        <time>2019-06-19T23:00:01Z</time>
      </trkpt>
      <trkpt lat="45.19652" lon="5.57935">
        <ele>1422</ele>
        <time>2019-06-19T23:00:26Z</time>
      </trkpt>
      <trkpt lat="45.19607" lon="5.58093">
        <ele>1430</ele>
        <time>2019-06-19T23:00:55Z</time>
      </trkpt>
      <trkpt lat="45.19646" lon="5.58122">
        <ele>1441</ele>
        <time>2019-06-19T23:01:05Z</time>
      </trkpt>
      <trkpt lat="45.19647" lon="5.58077">
        <ele>1439</ele>
        <time>2019-06-19T23:01:12Z</time>
      </trkpt>
      <trkpt lat="45.19662" lon="5.58075">
        <ele>1442</ele>
        <time>2019-06-19T23:01:16Z</time>
      </trkpt>
      <trkpt lat="45.19687" lon="5.58037">
        <ele>1449</ele>
        <time>2019-06-19T23:01:24Z</time>
      </trkpt>
      <trkpt lat="45.19722" lon="5.58172">
        <ele>1465</ele>
        <time>2019-06-19T23:01:48Z</time>
      </trkpt>
      <trkpt lat="45.19755" lon="5.58173">
        <ele>1474</ele>
        <time>2019-06-19T23:01:56Z</time>
      </trkpt>
      <trkpt lat="45.19764" lon="5.58211">
        <ele>1479</ele>
        <time>2019-06-19T23:02:02Z</time>
      </trkpt>
      <trkpt lat="45.19788" lon="5.58194">
        <ele>1486</ele>
        <time>2019-06-19T23:02:09Z</time>
      </trkpt>
      <trkpt lat="45.19794" lon="5.58287">
        <ele>1493</ele>
        <time>2019-06-19T23:02:24Z</time>
      </trkpt>
      <trkpt lat="45.19833" lon="5.58298">
        <ele>1502</ele>
        <time>2019-06-19T23:02:33Z</time>
      </trkpt>
      <trkpt lat="45.19831" lon="5.58399">
        <ele>1515</ele>
        <time>2019-06-19T23:02:50Z</time>
      </trkpt>
      <trkpt lat="45.19825" lon="5.58471">
        <ele>1528</ele>
        <time>2019-06-19T23:03:02Z</time>
      </trkpt>
      <trkpt lat="45.19831" lon="5.5854">
        <ele>1540</ele>
        <time>2019-06-19T23:03:13Z</time>
      </trkpt>
      <trkpt lat="45.19865" lon="5.58589">
        <ele>1553</ele>
        <time>2019-06-19T23:03:24Z</time>
      </trkpt>
      <trkpt lat="45.19874" lon="5.58641">
        <ele>1564</ele>
        <time>2019-06-19T23:03:33Z</time>
      </trkpt>
      <trkpt lat="45.19912" lon="5.5871">
        <ele>1582</ele>
        <time>2019-06-19T23:03:48Z</time>
      </trkpt>
      <trkpt lat="45.19877" lon="5.58758">
        <ele>1586</ele>
        <time>2019-06-19T23:03:59Z</time>
      </trkpt>
      <trkpt lat="45.19857" lon="5.58835">
        <ele>1595</ele>
        <time>2019-06-19T23:04:13Z</time>
      </trkpt>
      <trkpt lat="45.19838" lon="5.58872">
        <ele>1600</ele>
        <time>2019-06-19T23:04:20Z</time>
      </trkpt>
      <trkpt lat="45.19877" lon="5.58908">
        <ele>1609</ele>
        <time>2019-06-19T23:04:31Z</time>
      </trkpt>
      <trkpt lat="45.19885" lon="5.58986">
        <ele>1621</ele>
        <time>2019-06-19T23:04:44Z</time>
      </trkpt>
      <trkpt lat="45.19844" lon="5.59084">
        <ele>1629</ele>
        <time>2019-06-19T23:05:03Z</time>
      </trkpt>
      <trkpt lat="45.19831" lon="5.59124">
        <ele>1631</ele>
        <time>2019-06-19T23:05:10Z</time>
      </trkpt>
      <trkpt lat="45.19786" lon="5.59105">
        <ele>1634</ele>
        <time>2019-06-19T23:05:21Z</time>
      </trkpt>
      <trkpt lat="45.19794" lon="5.59192">
        <ele>1634</ele>
        <time>2019-06-19T23:05:35Z</time>
      </trkpt>
      <trkpt lat="45.19779" lon="5.59202">
        <ele>1634</ele>
        <time>2019-06-19T23:05:39Z</time>
      </trkpt>
      <trkpt lat="45.19768" lon="5.59196">
        <ele>1635</ele>
        <time>2019-06-19T23:05:42Z</time>
      </trkpt>
      <trkpt lat="45.19729" lon="5.59187">
        <ele>1639</ele>
        <time>2019-06-19T23:05:51Z</time>
      </trkpt>
      <trkpt lat="45.19699" lon="5.5917">
        <ele>1646</ele>
        <time>2019-06-19T23:05:59Z</time>
      </trkpt>
      <trkpt lat="45.19658" lon="5.59156">
        <ele>1652</ele>
        <time>2019-06-19T23:06:09Z</time>
      </trkpt>
      <trkpt lat="45.19603" lon="5.59168">
        <ele>1656</ele>
        <time>2019-06-19T23:06:22Z</time>
      </trkpt>
      <trkpt lat="45.19454" lon="5.59218">
        <ele>1655</ele>
        <time>2019-06-19T23:06:57Z</time>
      </trkpt>
      <trkpt lat="45.19432" lon="5.59237">
        <ele>1654</ele>
        <time>2019-06-19T23:07:03Z</time>
      </trkpt>
      <trkpt lat="45.19419" lon="5.59241">
        <ele>1654</ele>
        <time>2019-06-19T23:07:06Z</time>
      </trkpt>
      <trkpt lat="45.19396" lon="5.59243">
        <ele>1652</ele>
        <time>2019-06-19T23:07:12Z</time>
      </trkpt>
      <trkpt lat="45.19373" lon="5.59244">
        <ele>1649</ele>
        <time>2019-06-19T23:07:17Z</time>
      </trkpt>
      <trkpt lat="45.19318" lon="5.59233">
        <ele>1643</ele>
        <time>2019-06-19T23:07:30Z</time>
      </trkpt>
      <trkpt lat="45.193" lon="5.59226">
        <ele>1642</ele>
        <time>2019-06-19T23:07:35Z</time>
      </trkpt>
      <trkpt lat="45.19274" lon="5.59221">
        <ele>1641</ele>
        <time>2019-06-19T23:07:41Z</time>
      </trkpt>
      <trkpt lat="45.19215" lon="5.59201">
        <ele>1643</ele>
        <time>2019-06-19T23:07:55Z</time>
      </trkpt>
      <trkpt lat="45.19168" lon="5.59191">
        <ele>1650</ele>
        <time>2019-06-19T23:08:06Z</time>
      </trkpt>
      <trkpt lat="45.19102" lon="5.59164">
        <ele>1666</ele>
        <time>2019-06-19T23:08:22Z</time>
      </trkpt>
      <trkpt lat="45.19091" lon="5.59163">
        <ele>1668</ele>
        <time>2019-06-19T23:08:25Z</time>
      </trkpt>
      <trkpt lat="45.19063" lon="5.59151">
        <ele>1671</ele>
        <time>2019-06-19T23:08:31Z</time>
      </trkpt>
      <trkpt lat="45.18999" lon="5.59137">
        <ele>1679</ele>
        <time>2019-06-19T23:08:47Z</time>
      </trkpt>
      <trkpt lat="45.18986" lon="5.59139">
        <ele>1680</ele>
        <time>2019-06-19T23:08:50Z</time>
      </trkpt>
      <trkpt lat="45.18962" lon="5.59135">
        <ele>1682</ele>
        <time>2019-06-19T23:08:55Z</time>
      </trkpt>
      <trkpt lat="45.18936" lon="5.59134">
        <ele>1684</ele>
        <time>2019-06-19T23:09:01Z</time>
      </trkpt>
      <trkpt lat="45.18886" lon="5.59139">
        <ele>1687</ele>
        <time>2019-06-19T23:09:13Z</time>
      </trkpt>
      <trkpt lat="45.18873" lon="5.59136">
        <ele>1689</ele>
        <time>2019-06-19T23:09:16Z</time>
      </trkpt>
      <trkpt lat="45.18851" lon="5.59138">
        <ele>1690</ele>
        <time>2019-06-19T23:09:21Z</time>
      </trkpt>
      <trkpt lat="45.18817" lon="5.5915">
        <ele>1692</ele>
        <time>2019-06-19T23:09:29Z</time>
      </trkpt>
      <trkpt lat="45.18808" lon="5.59156">
        <ele>1692</ele>
        <time>2019-06-19T23:09:32Z</time>
      </trkpt>
      <trkpt lat="45.18797" lon="5.59169">
        <ele>1692</ele>
        <time>2019-06-19T23:09:35Z</time>
      </trkpt>
      <trkpt lat="45.18791" lon="5.59183">
        <ele>1689</ele>
        <time>2019-06-19T23:09:38Z</time>
      </trkpt>
      <trkpt lat="45.18787" lon="5.59186">
        <ele>1689</ele>
        <time>2019-06-19T23:09:39Z</time>
      </trkpt>
      <trkpt lat="45.18769" lon="5.59193">
        <ele>1692</ele>
        <time>2019-06-19T23:09:43Z</time>
      </trkpt>
      <trkpt lat="45.18755" lon="5.59194">
        <ele>1696</ele>
        <time>2019-06-19T23:09:46Z</time>
      </trkpt>
      <trkpt lat="45.18725" lon="5.59221">
        <ele>1694</ele>
        <time>2019-06-19T23:09:55Z</time>
      </trkpt>
      <trkpt lat="45.18706" lon="5.59243">
        <ele>1692</ele>
        <time>2019-06-19T23:10:00Z</time>
      </trkpt>
      <trkpt lat="45.18675" lon="5.5926">
        <ele>1690</ele>
        <time>2019-06-19T23:10:08Z</time>
      </trkpt>
      <trkpt lat="45.18671" lon="5.59259">
        <ele>1691</ele>
        <time>2019-06-19T23:10:09Z</time>
      </trkpt>
      <trkpt lat="45.18655" lon="5.59249">
        <ele>1692</ele>
        <time>2019-06-19T23:10:13Z</time>
      </trkpt>
      <trkpt lat="45.18636" lon="5.59232">
        <ele>1691</ele>
        <time>2019-06-19T23:10:19Z</time>
      </trkpt>
      <trkpt lat="45.18638" lon="5.59228">
        <ele>1693</ele>
        <time>2019-06-19T23:10:19Z</time>
      </trkpt>
      <trkpt lat="45.18608" lon="5.59182">
        <ele>1702</ele>
        <time>2019-06-19T23:10:30Z</time>
      </trkpt>
      <trkpt lat="45.18595" lon="5.59167">
        <ele>1705</ele>
        <time>2019-06-19T23:10:34Z</time>
      </trkpt>
      <trkpt lat="45.18582" lon="5.5916">
        <ele>1704</ele>
        <time>2019-06-19T23:10:37Z</time>
      </trkpt>
      <trkpt lat="45.18573" lon="5.5915">
        <ele>1701</ele>
        <time>2019-06-19T23:10:39Z</time>
      </trkpt>
      <trkpt lat="45.18565" lon="5.59113">
        <ele>1704</ele>
        <time>2019-06-19T23:10:46Z</time>
      </trkpt>
      <trkpt lat="45.18556" lon="5.5911">
        <ele>1701</ele>
        <time>2019-06-19T23:10:48Z</time>
      </trkpt>
      <trkpt lat="45.18545" lon="5.59102">
        <ele>1699</ele>
        <time>2019-06-19T23:10:51Z</time>
      </trkpt>
      <trkpt lat="45.18501" lon="5.59045">
        <ele>1695</ele>
        <time>2019-06-19T23:11:05Z</time>
      </trkpt>
      <trkpt lat="45.18481" lon="5.59025">
        <ele>1689</ele>
        <time>2019-06-19T23:11:11Z</time>
      </trkpt>
      <trkpt lat="45.18468" lon="5.58983">
        <ele>1690</ele>
        <time>2019-06-19T23:11:18Z</time>
      </trkpt>
      <trkpt lat="45.18429" lon="5.58937">
        <ele>1685</ele>
        <time>2019-06-19T23:11:30Z</time>
      </trkpt>
      <trkpt lat="45.18422" lon="5.5893">
        <ele>1684</ele>
        <time>2019-06-19T23:11:32Z</time>
      </trkpt>
      <trkpt lat="45.18411" lon="5.58924">
        <ele>1682</ele>
        <time>2019-06-19T23:11:35Z</time>
      </trkpt>
      <trkpt lat="45.18384" lon="5.58897">
        <ele>1676</ele>
        <time>2019-06-19T23:11:42Z</time>
      </trkpt>
      <trkpt lat="45.18361" lon="5.58854">
        <ele>1676</ele>
        <time>2019-06-19T23:11:51Z</time>
      </trkpt>
      <trkpt lat="45.18342" lon="5.58835">
        <ele>1677</ele>
        <time>2019-06-19T23:11:57Z</time>
      </trkpt>
      <trkpt lat="45.18324" lon="5.58812">
        <ele>1674</ele>
        <time>2019-06-19T23:12:02Z</time>
      </trkpt>
      <trkpt lat="45.18269" lon="5.58792">
        <ele>1662</ele>
        <time>2019-06-19T23:12:16Z</time>
      </trkpt>
      <trkpt lat="45.18253" lon="5.5878">
        <ele>1661</ele>
        <time>2019-06-19T23:12:20Z</time>
      </trkpt>
      <trkpt lat="45.1824" lon="5.58757">
        <ele>1664</ele>
        <time>2019-06-19T23:12:25Z</time>
      </trkpt>
      <trkpt lat="45.182" lon="5.58737">
        <ele>1659</ele>
        <time>2019-06-19T23:12:35Z</time>
      </trkpt>
      <trkpt lat="45.18129" lon="5.58686">
        <ele>1659</ele>
        <time>2019-06-19T23:12:53Z</time>
      </trkpt>
      <trkpt lat="45.18107" lon="5.58674">
        <ele>1663</ele>
        <time>2019-06-19T23:12:59Z</time>
      </trkpt>
      <trkpt lat="45.18078" lon="5.58651">
        <ele>1665</ele>
        <time>2019-06-19T23:13:06Z</time>
      </trkpt>
      <trkpt lat="45.1803" lon="5.58622">
        <ele>1657</ele>
        <time>2019-06-19T23:13:19Z</time>
      </trkpt>
      <trkpt lat="45.17982" lon="5.58588">
        <ele>1657</ele>
        <time>2019-06-19T23:13:31Z</time>
      </trkpt>
      <trkpt lat="45.17967" lon="5.58584">
        <ele>1658</ele>
        <time>2019-06-19T23:13:35Z</time>
      </trkpt>
      <trkpt lat="45.17939" lon="5.58582">
        <ele>1658</ele>
        <time>2019-06-19T23:13:41Z</time>
      </trkpt>
      <trkpt lat="45.17908" lon="5.58574">
        <ele>1660</ele>
        <time>2019-06-19T23:13:49Z</time>
      </trkpt>
      <trkpt lat="45.17879" lon="5.58578">
        <ele>1664</ele>
        <time>2019-06-19T23:13:55Z</time>
      </trkpt>
      <trkpt lat="45.17862" lon="5.58592">
        <ele>1663</ele>
        <time>2019-06-19T23:14:00Z</time>
      </trkpt>
      <trkpt lat="45.17837" lon="5.58607">
        <ele>1661</ele>
        <time>2019-06-19T23:14:06Z</time>
      </trkpt>
      <trkpt lat="45.17829" lon="5.58611">
        <ele>1661</ele>
        <time>2019-06-19T23:14:08Z</time>
      </trkpt>
      <trkpt lat="45.1781" lon="5.58614">
        <ele>1662</ele>
        <time>2019-06-19T23:14:13Z</time>
      </trkpt>
      <trkpt lat="45.17788" lon="5.58632">
        <ele>1660</ele>
        <time>2019-06-19T23:14:19Z</time>
      </trkpt>
      <trkpt lat="45.17766" lon="5.58638">
        <ele>1661</ele>
        <time>2019-06-19T23:14:24Z</time>
      </trkpt>
      <trkpt lat="45.17739" lon="5.58638">
        <ele>1665</ele>
        <time>2019-06-19T23:14:30Z</time>
      </trkpt>
      <trkpt lat="45.17721" lon="5.58645">
        <ele>1666</ele>
        <time>2019-06-19T23:14:35Z</time>
      </trkpt>
      <trkpt lat="45.177" lon="5.58648">
        <ele>1667</ele>
        <time>2019-06-19T23:14:40Z</time>
      </trkpt>
      <trkpt lat="45.1769" lon="5.58647">
        <ele>1669</ele>
        <time>2019-06-19T23:14:42Z</time>
      </trkpt>
      <trkpt lat="45.17684" lon="5.58651">
        <ele>1669</ele>
        <time>2019-06-19T23:14:43Z</time>
      </trkpt>
      <trkpt lat="45.17675" lon="5.58649">
        <ele>1670</ele>
        <time>2019-06-19T23:14:46Z</time>
      </trkpt>
      <trkpt lat="45.17672" lon="5.58645">
        <ele>1671</ele>
        <time>2019-06-19T23:14:47Z</time>
      </trkpt>
      <trkpt lat="45.17617" lon="5.58618">
        <ele>1676</ele>
        <time>2019-06-19T23:15:00Z</time>
      </trkpt>
      <trkpt lat="45.17603" lon="5.58607">
        <ele>1678</ele>
        <time>2019-06-19T23:15:04Z</time>
      </trkpt>
      <trkpt lat="45.17599" lon="5.58601">
        <ele>1680</ele>
        <time>2019-06-19T23:15:05Z</time>
      </trkpt>
      <trkpt lat="45.17527" lon="5.58564">
        <ele>1678</ele>
        <time>2019-06-19T23:15:23Z</time>
      </trkpt>
      <trkpt lat="45.1751" lon="5.58549">
        <ele>1678</ele>
        <time>2019-06-19T23:15:28Z</time>
      </trkpt>
      <trkpt lat="45.175" lon="5.58545">
        <ele>1677</ele>
        <time>2019-06-19T23:15:30Z</time>
      </trkpt>
      <trkpt lat="45.17463" lon="5.58545">
        <ele>1671</ele>
        <time>2019-06-19T23:15:39Z</time>
      </trkpt>
      <trkpt lat="45.17417" lon="5.58516">
        <ele>1671</ele>
        <time>2019-06-19T23:15:51Z</time>
      </trkpt>
      <trkpt lat="45.1741" lon="5.58508">
        <ele>1670</ele>
        <time>2019-06-19T23:15:53Z</time>
      </trkpt>
      <trkpt lat="45.17395" lon="5.585">
        <ele>1667</ele>
        <time>2019-06-19T23:15:56Z</time>
      </trkpt>
      <trkpt lat="45.17371" lon="5.58479">
        <ele>1661</ele>
        <time>2019-06-19T23:16:03Z</time>
      </trkpt>
      <trkpt lat="45.17341" lon="5.58465">
        <ele>1654</ele>
        <time>2019-06-19T23:16:10Z</time>
      </trkpt>
      <trkpt lat="45.17319" lon="5.58449">
        <ele>1651</ele>
        <time>2019-06-19T23:16:16Z</time>
      </trkpt>
      <trkpt lat="45.17307" lon="5.58432">
        <ele>1652</ele>
        <time>2019-06-19T23:16:20Z</time>
      </trkpt>
      <trkpt lat="45.17289" lon="5.58387">
        <ele>1651</ele>
        <time>2019-06-19T23:16:29Z</time>
      </trkpt>
      <trkpt lat="45.17344" lon="5.58332">
        <ele>1661</ele>
        <time>2019-06-19T23:16:44Z</time>
      </trkpt>
      <trkpt lat="45.17383" lon="5.58279">
        <ele>1651</ele>
        <time>2019-06-19T23:16:57Z</time>
      </trkpt>
      <trkpt lat="45.1742" lon="5.58211">
        <ele>1639</ele>
        <time>2019-06-19T23:17:11Z</time>
      </trkpt>
      <trkpt lat="45.17437" lon="5.58173">
        <ele>1629</ele>
        <time>2019-06-19T23:17:19Z</time>
      </trkpt>
      <trkpt lat="45.17474" lon="5.58108">
        <ele>1621</ele>
        <time>2019-06-19T23:17:32Z</time>
      </trkpt>
      <trkpt lat="45.17485" lon="5.58096">
        <ele>1623</ele>
        <time>2019-06-19T23:17:36Z</time>
      </trkpt>
      <trkpt lat="45.17538" lon="5.5806">
        <ele>1623</ele>
        <time>2019-06-19T23:17:49Z</time>
      </trkpt>
      <trkpt lat="45.17524" lon="5.58035">
        <ele>1618</ele>
        <time>2019-06-19T23:17:55Z</time>
      </trkpt>
      <trkpt lat="45.17501" lon="5.58014">
        <ele>1612</ele>
        <time>2019-06-19T23:18:01Z</time>
      </trkpt>
      <trkpt lat="45.17504" lon="5.57996">
        <ele>1609</ele>
        <time>2019-06-19T23:18:04Z</time>
      </trkpt>
      <trkpt lat="45.17522" lon="5.57972">
        <ele>1605</ele>
        <time>2019-06-19T23:18:10Z</time>
      </trkpt>
      <trkpt lat="45.1752" lon="5.57966">
        <ele>1604</ele>
        <time>2019-06-19T23:18:11Z</time>
      </trkpt>
      <trkpt lat="45.17496" lon="5.57942">
        <ele>1594</ele>
        <time>2019-06-19T23:18:18Z</time>
      </trkpt>
      <trkpt lat="45.17495" lon="5.57931">
        <ele>1591</ele>
        <time>2019-06-19T23:18:19Z</time>
      </trkpt>
      <trkpt lat="45.175" lon="5.57919">
        <ele>1592</ele>
        <time>2019-06-19T23:18:22Z</time>
      </trkpt>
      <trkpt lat="45.17523" lon="5.57889">
        <ele>1589</ele>
        <time>2019-06-19T23:18:29Z</time>
      </trkpt>
      <trkpt lat="45.17501" lon="5.57868">
        <ele>1582</ele>
        <time>2019-06-19T23:18:35Z</time>
      </trkpt>
      <trkpt lat="45.17502" lon="5.57843">
        <ele>1578</ele>
        <time>2019-06-19T23:18:39Z</time>
      </trkpt>
      <trkpt lat="45.17508" lon="5.57832">
        <ele>1577</ele>
        <time>2019-06-19T23:18:42Z</time>
      </trkpt>
      <trkpt lat="45.1754" lon="5.57794">
        <ele>1572</ele>
        <time>2019-06-19T23:18:51Z</time>
      </trkpt>
      <trkpt lat="45.17495" lon="5.57764">
        <ele>1558</ele>
        <time>2019-06-19T23:19:03Z</time>
      </trkpt>
      <trkpt lat="45.1749" lon="5.5775">
        <ele>1552</ele>
        <time>2019-06-19T23:19:06Z</time>
      </trkpt>
      <trkpt lat="45.17493" lon="5.57743">
        <ele>1553</ele>
        <time>2019-06-19T23:19:07Z</time>
      </trkpt>
      <trkpt lat="45.17503" lon="5.57733">
        <ele>1555</ele>
        <time>2019-06-19T23:19:10Z</time>
      </trkpt>
      <trkpt lat="45.17532" lon="5.57716">
        <ele>1553</ele>
        <time>2019-06-19T23:19:17Z</time>
      </trkpt>
      <trkpt lat="45.17455" lon="5.57619">
        <ele>1517</ele>
        <time>2019-06-19T23:19:41Z</time>
      </trkpt>
      <trkpt lat="45.17437" lon="5.57672">
        <ele>1515</ele>
        <time>2019-06-19T23:19:51Z</time>
      </trkpt>
      <trkpt lat="45.17432" lon="5.57749">
        <ele>1520</ele>
        <time>2019-06-19T23:20:04Z</time>
      </trkpt>
      <trkpt lat="45.17419" lon="5.57821">
        <ele>1524</ele>
        <time>2019-06-19T23:20:16Z</time>
      </trkpt>
      <trkpt lat="45.17398" lon="5.57885">
        <ele>1525</ele>
        <time>2019-06-19T23:20:27Z</time>
      </trkpt>
      <trkpt lat="45.17375" lon="5.57935">
        <ele>1524</ele>
        <time>2019-06-19T23:20:37Z</time>
      </trkpt>
      <trkpt lat="45.17347" lon="5.57979">
        <ele>1521</ele>
        <time>2019-06-19T23:20:47Z</time>
      </trkpt>
      <trkpt lat="45.17312" lon="5.57999">
        <ele>1516</ele>
        <time>2019-06-19T23:20:56Z</time>
      </trkpt>
      <trkpt lat="45.17299" lon="5.58012">
        <ele>1518</ele>
        <time>2019-06-19T23:21:00Z</time>
      </trkpt>
      <trkpt lat="45.17248" lon="5.58041">
        <ele>1516</ele>
        <time>2019-06-19T23:21:12Z</time>
      </trkpt>
      <trkpt lat="45.17217" lon="5.58037">
        <ele>1518</ele>
        <time>2019-06-19T23:21:20Z</time>
      </trkpt>
      <trkpt lat="45.17193" lon="5.58029">
        <ele>1518</ele>
        <time>2019-06-19T23:21:25Z</time>
      </trkpt>
      <trkpt lat="45.17036" lon="5.5793">
        <ele>1509</ele>
        <time>2019-06-19T23:22:06Z</time>
      </trkpt>
      <trkpt lat="45.17017" lon="5.57922">
        <ele>1509</ele>
        <time>2019-06-19T23:22:10Z</time>
      </trkpt>
      <trkpt lat="45.16987" lon="5.57923">
        <ele>1511</ele>
        <time>2019-06-19T23:22:17Z</time>
      </trkpt>
      <trkpt lat="45.16958" lon="5.57913">
        <ele>1509</ele>
        <time>2019-06-19T23:22:24Z</time>
      </trkpt>
      <trkpt lat="45.16837" lon="5.57909">
        <ele>1508</ele>
        <time>2019-06-19T23:22:52Z</time>
      </trkpt>
      <trkpt lat="45.16824" lon="5.57902">
        <ele>1506</ele>
        <time>2019-06-19T23:22:56Z</time>
      </trkpt>
      <trkpt lat="45.16801" lon="5.57881">
        <ele>1499</ele>
        <time>2019-06-19T23:23:02Z</time>
      </trkpt>
      <trkpt lat="45.16776" lon="5.57865">
        <ele>1494</ele>
        <time>2019-06-19T23:23:08Z</time>
      </trkpt>
      <trkpt lat="45.16777" lon="5.57859">
        <ele>1492</ele>
        <time>2019-06-19T23:23:09Z</time>
      </trkpt>
      <trkpt lat="45.16808" lon="5.57844">
        <ele>1490</ele>
        <time>2019-06-19T23:23:17Z</time>
      </trkpt>
      <trkpt lat="45.16794" lon="5.57831">
        <ele>1486</ele>
        <time>2019-06-19T23:23:21Z</time>
      </trkpt>
      <trkpt lat="45.16749" lon="5.57805">
        <ele>1479</ele>
        <time>2019-06-19T23:23:32Z</time>
      </trkpt>
      <trkpt lat="45.16715" lon="5.57781">
        <ele>1476</ele>
        <time>2019-06-19T23:23:41Z</time>
      </trkpt>
      <trkpt lat="45.16677" lon="5.57775">
        <ele>1477</ele>
        <time>2019-06-19T23:23:50Z</time>
      </trkpt>
      <trkpt lat="45.16661" lon="5.57767">
        <ele>1475</ele>
        <time>2019-06-19T23:23:54Z</time>
      </trkpt>
      <trkpt lat="45.16619" lon="5.57755">
        <ele>1470</ele>
        <time>2019-06-19T23:24:04Z</time>
      </trkpt>
      <trkpt lat="45.16591" lon="5.57752">
        <ele>1468</ele>
        <time>2019-06-19T23:24:11Z</time>
      </trkpt>
      <trkpt lat="45.16559" lon="5.57738">
        <ele>1469</ele>
        <time>2019-06-19T23:24:19Z</time>
      </trkpt>
      <trkpt lat="45.16556" lon="5.57728">
        <ele>1467</ele>
        <time>2019-06-19T23:24:20Z</time>
      </trkpt>
      <trkpt lat="45.16557" lon="5.57706">
        <ele>1460</ele>
        <time>2019-06-19T23:24:24Z</time>
      </trkpt>
      <trkpt lat="45.1655" lon="5.57658">
        <ele>1449</ele>
        <time>2019-06-19T23:24:32Z</time>
      </trkpt>
      <trkpt lat="45.16525" lon="5.57611">
        <ele>1448</ele>
        <time>2019-06-19T23:24:42Z</time>
      </trkpt>
      <trkpt lat="45.16527" lon="5.57606">
        <ele>1446</ele>
        <time>2019-06-19T23:24:43Z</time>
      </trkpt>
      <trkpt lat="45.16532" lon="5.57605">
        <ele>1444</ele>
        <time>2019-06-19T23:24:44Z</time>
      </trkpt>
      <trkpt lat="45.1657" lon="5.57617">
        <ele>1434</ele>
        <time>2019-06-19T23:24:53Z</time>
      </trkpt>
      <trkpt lat="45.16581" lon="5.57623">
        <ele>1432</ele>
        <time>2019-06-19T23:24:56Z</time>
      </trkpt>
      <trkpt lat="45.16581" lon="5.57625">
        <ele>1432</ele>
        <time>2019-06-19T23:24:56Z</time>
      </trkpt>
      <trkpt lat="45.16583" lon="5.57624">
        <ele>1431</ele>
        <time>2019-06-19T23:24:57Z</time>
      </trkpt>
      <trkpt lat="45.16581" lon="5.57617">
        <ele>1430</ele>
        <time>2019-06-19T23:24:58Z</time>
      </trkpt>
      <trkpt lat="45.16554" lon="5.57574">
        <ele>1431</ele>
        <time>2019-06-19T23:25:07Z</time>
      </trkpt>
      <trkpt lat="45.16576" lon="5.5758">
        <ele>1424</ele>
        <time>2019-06-19T23:25:12Z</time>
      </trkpt>
      <trkpt lat="45.16597" lon="5.57598">
        <ele>1425</ele>
        <time>2019-06-19T23:25:18Z</time>
      </trkpt>
      <trkpt lat="45.166" lon="5.57598">
        <ele>1425</ele>
        <time>2019-06-19T23:25:19Z</time>
      </trkpt>
      <trkpt lat="45.166" lon="5.5757">
        <ele>1418</ele>
        <time>2019-06-19T23:25:24Z</time>
      </trkpt>
      <trkpt lat="45.16598" lon="5.57562">
        <ele>1417</ele>
        <time>2019-06-19T23:25:25Z</time>
      </trkpt>
      <trkpt lat="45.16616" lon="5.57568">
        <ele>1417</ele>
        <time>2019-06-19T23:25:29Z</time>
      </trkpt>
      <trkpt lat="45.16601" lon="5.57517">
        <ele>1406</ele>
        <time>2019-06-19T23:25:38Z</time>
      </trkpt>
      <trkpt lat="45.16607" lon="5.57523">
        <ele>1406</ele>
        <time>2019-06-19T23:25:40Z</time>
      </trkpt>
      <trkpt lat="45.16609" lon="5.57518">
        <ele>1405</ele>
        <time>2019-06-19T23:25:41Z</time>
      </trkpt>
      <trkpt lat="45.16603" lon="5.57438">
        <ele>1388</ele>
        <time>2019-06-19T23:25:54Z</time>
      </trkpt>
      <trkpt lat="45.16609" lon="5.5732">
        <ele>1371</ele>
        <time>2019-06-19T23:26:14Z</time>
      </trkpt>
      <trkpt lat="45.16605" lon="5.57302">
        <ele>1372</ele>
        <time>2019-06-19T23:26:17Z</time>
      </trkpt>
      <trkpt lat="45.1662" lon="5.57205">
        <ele>1357</ele>
        <time>2019-06-19T23:26:33Z</time>
      </trkpt>
      <trkpt lat="45.16632" lon="5.57254">
        <ele>1355</ele>
        <time>2019-06-19T23:26:42Z</time>
      </trkpt>
      <trkpt lat="45.16648" lon="5.57292">
        <ele>1350</ele>
        <time>2019-06-19T23:26:49Z</time>
      </trkpt>
      <trkpt lat="45.16658" lon="5.57278">
        <ele>1344</ele>
        <time>2019-06-19T23:26:52Z</time>
      </trkpt>
      <trkpt lat="45.16665" lon="5.57167">
        <ele>1328</ele>
        <time>2019-06-19T23:27:11Z</time>
      </trkpt>
      <trkpt lat="45.16659" lon="5.57151">
        <ele>1329</ele>
        <time>2019-06-19T23:27:14Z</time>
      </trkpt>
      <trkpt lat="45.16691" lon="5.57184">
        <ele>1320</ele>
        <time>2019-06-19T23:27:23Z</time>
      </trkpt>
      <trkpt lat="45.16695" lon="5.57183">
        <ele>1318</ele>
        <time>2019-06-19T23:27:24Z</time>
      </trkpt>
      <trkpt lat="45.16695" lon="5.57121">
        <ele>1308</ele>
        <time>2019-06-19T23:27:34Z</time>
      </trkpt>
      <trkpt lat="45.16703" lon="5.57043">
        <ele>1297</ele>
        <time>2019-06-19T23:27:47Z</time>
      </trkpt>
      <trkpt lat="45.1675" lon="5.56897">
        <ele>1273</ele>
        <time>2019-06-19T23:28:13Z</time>
      </trkpt>
      <trkpt lat="45.16753" lon="5.56865">
        <ele>1276</ele>
        <time>2019-06-19T23:28:19Z</time>
      </trkpt>
      <trkpt lat="45.1675" lon="5.56886">
        <ele>1275</ele>
        <time>2019-06-19T23:28:22Z</time>
      </trkpt>
      <trkpt lat="45.16755" lon="5.56977">
        <ele>1266</ele>
        <time>2019-06-19T23:28:37Z</time>
      </trkpt>
      <trkpt lat="45.16802" lon="5.5689">
        <ele>1244</ele>
        <time>2019-06-19T23:28:55Z</time>
      </trkpt>
      <trkpt lat="45.16829" lon="5.56822">
        <ele>1235</ele>
        <time>2019-06-19T23:29:08Z</time>
      </trkpt>
      <trkpt lat="45.16842" lon="5.56755">
        <ele>1236</ele>
        <time>2019-06-19T23:29:20Z</time>
      </trkpt>
      <trkpt lat="45.16852" lon="5.56731">
        <ele>1235</ele>
        <time>2019-06-19T23:29:24Z</time>
      </trkpt>
      <trkpt lat="45.1686" lon="5.5679">
        <ele>1224</ele>
        <time>2019-06-19T23:29:34Z</time>
      </trkpt>
      <trkpt lat="45.1686" lon="5.56887">
        <ele>1217</ele>
        <time>2019-06-19T23:29:50Z</time>
      </trkpt>
      <trkpt lat="45.16869" lon="5.56926">
        <ele>1213</ele>
        <time>2019-06-19T23:29:57Z</time>
      </trkpt>
      <trkpt lat="45.16883" lon="5.56945">
        <ele>1211</ele>
        <time>2019-06-19T23:30:01Z</time>
      </trkpt>
      <trkpt lat="45.16881" lon="5.56924">
        <ele>1209</ele>
        <time>2019-06-19T23:30:05Z</time>
      </trkpt>
      <trkpt lat="45.16889" lon="5.56926">
        <ele>1207</ele>
        <time>2019-06-19T23:30:07Z</time>
      </trkpt>
      <trkpt lat="45.16896" lon="5.56919">
        <ele>1204</ele>
        <time>2019-06-19T23:30:09Z</time>
      </trkpt>
      <trkpt lat="45.16904" lon="5.56902">
        <ele>1201</ele>
        <time>2019-06-19T23:30:12Z</time>
      </trkpt>
      <trkpt lat="45.16907" lon="5.56895">
        <ele>1200</ele>
        <time>2019-06-19T23:30:13Z</time>
      </trkpt>
      <trkpt lat="45.16913" lon="5.56857">
        <ele>1198</ele>
        <time>2019-06-19T23:30:20Z</time>
      </trkpt>
      <trkpt lat="45.16924" lon="5.56826">
        <ele>1200</ele>
        <time>2019-06-19T23:30:26Z</time>
      </trkpt>
      <trkpt lat="45.16934" lon="5.5677">
        <ele>1203</ele>
        <time>2019-06-19T23:30:35Z</time>
      </trkpt>
      <trkpt lat="45.16932" lon="5.56734">
        <ele>1202</ele>
        <time>2019-06-19T23:30:41Z</time>
      </trkpt>
      <trkpt lat="45.16937" lon="5.56708">
        <ele>1200</ele>
        <time>2019-06-19T23:30:45Z</time>
      </trkpt>
      <trkpt lat="45.16961" lon="5.5665">
        <ele>1191</ele>
        <time>2019-06-19T23:30:57Z</time>
      </trkpt>
      <trkpt lat="45.16982" lon="5.5662">
        <ele>1181</ele>
        <time>2019-06-19T23:31:04Z</time>
      </trkpt>
      <trkpt lat="45.16987" lon="5.56599">
        <ele>1175</ele>
        <time>2019-06-19T23:31:07Z</time>
      </trkpt>
      <trkpt lat="45.16987" lon="5.56563">
        <ele>1173</ele>
        <time>2019-06-19T23:31:13Z</time>
      </trkpt>
      <trkpt lat="45.1699" lon="5.56546">
        <ele>1170</ele>
        <time>2019-06-19T23:31:16Z</time>
      </trkpt>
      <trkpt lat="45.17034" lon="5.56426">
        <ele>1150</ele>
        <time>2019-06-19T23:31:38Z</time>
      </trkpt>
      <trkpt lat="45.17038" lon="5.56392">
        <ele>1146</ele>
        <time>2019-06-19T23:31:44Z</time>
      </trkpt>
      <trkpt lat="45.17037" lon="5.56359">
        <ele>1143</ele>
        <time>2019-06-19T23:31:49Z</time>
      </trkpt>
      <trkpt lat="45.1705" lon="5.56198">
        <ele>1124</ele>
        <time>2019-06-19T23:32:16Z</time>
      </trkpt>
      <trkpt lat="45.17063" lon="5.56134">
        <ele>1121</ele>
        <time>2019-06-19T23:32:27Z</time>
      </trkpt>
      <trkpt lat="45.17014" lon="5.56082">
        <ele>1121</ele>
        <time>2019-06-19T23:32:41Z</time>
      </trkpt>
      <trkpt lat="45.16959" lon="5.56045">
        <ele>1117</ele>
        <time>2019-06-19T23:32:56Z</time>
      </trkpt>
      <trkpt lat="45.1695" lon="5.56036">
        <ele>1116</ele>
        <time>2019-06-19T23:32:58Z</time>
      </trkpt>
      <trkpt lat="45.16942" lon="5.56018">
        <ele>1115</ele>
        <time>2019-06-19T23:33:02Z</time>
      </trkpt>
      <trkpt lat="45.1692" lon="5.55896">
        <ele>1109</ele>
        <time>2019-06-19T23:33:22Z</time>
      </trkpt>
      <trkpt lat="45.16885" lon="5.5575">
        <ele>1105</ele>
        <time>2019-06-19T23:33:48Z</time>
      </trkpt>
      <trkpt lat="45.16873" lon="5.55648">
        <ele>1097</ele>
        <time>2019-06-19T23:34:05Z</time>
      </trkpt>
      <trkpt lat="45.16885" lon="5.55572">
        <ele>1093</ele>
        <time>2019-06-19T23:34:18Z</time>
      </trkpt>
      <trkpt lat="45.16906" lon="5.55483">
        <ele>1092</ele>
        <time>2019-06-19T23:34:33Z</time>
      </trkpt>
      <trkpt lat="45.16917" lon="5.55287">
        <ele>1082</ele>
        <time>2019-06-19T23:35:05Z</time>
      </trkpt>
      <trkpt lat="45.1693" lon="5.5526">
        <ele>1077</ele>
        <time>2019-06-19T23:35:11Z</time>
      </trkpt>
      <trkpt lat="45.16961" lon="5.55244">
        <ele>1072</ele>
        <time>2019-06-19T23:35:18Z</time>
      </trkpt>
      <trkpt lat="45.17009" lon="5.55224">
        <ele>1069</ele>
        <time>2019-06-19T23:35:30Z</time>
      </trkpt>
      <trkpt lat="45.17036" lon="5.55199">
        <ele>1071</ele>
        <time>2019-06-19T23:35:38Z</time>
      </trkpt>
      <trkpt lat="45.17114" lon="5.5507">
        <ele>1068</ele>
        <time>2019-06-19T23:36:06Z</time>
      </trkpt>
      <trkpt lat="45.1716" lon="5.54973">
        <ele>1063</ele>
        <time>2019-06-19T23:36:25Z</time>
      </trkpt>
      <trkpt lat="45.17223" lon="5.54889">
        <ele>1057</ele>
        <time>2019-06-19T23:36:45Z</time>
      </trkpt>
      <trkpt lat="45.17253" lon="5.54773">
        <ele>1055</ele>
        <time>2019-06-19T23:37:05Z</time>
      </trkpt>
      <trkpt lat="45.17306" lon="5.54644">
        <ele>1050</ele>
        <time>2019-06-19T23:37:30Z</time>
      </trkpt>
      <trkpt lat="45.17334" lon="5.54603">
        <ele>1047</ele>
        <time>2019-06-19T23:37:39Z</time>
      </trkpt>
      <trkpt lat="45.17358" lon="5.54535">
        <ele>1045</ele>
        <time>2019-06-19T23:37:52Z</time>
      </trkpt>
      <trkpt lat="45.17369" lon="5.54485">
        <ele>1045</ele>
        <time>2019-06-19T23:38:01Z</time>
      </trkpt>
      <trkpt lat="45.17347" lon="5.54415">
        <ele>1043</ele>
        <time>2019-06-19T23:38:13Z</time>
      </trkpt>
      <trkpt lat="45.17327" lon="5.54366">
        <ele>1042</ele>
        <time>2019-06-19T23:38:23Z</time>
      </trkpt>
      <trkpt lat="45.17309" lon="5.54254">
        <ele>1039</ele>
        <time>2019-06-19T23:38:41Z</time>
      </trkpt>
      <trkpt lat="45.17284" lon="5.54024">
        <ele>1035</ele>
        <time>2019-06-19T23:39:20Z</time>
      </trkpt>
      <trkpt lat="45.1728" lon="5.54009">
        <ele>1035</ele>
        <time>2019-06-19T23:39:22Z</time>
      </trkpt>
      <trkpt lat="45.17288" lon="5.53979">
        <ele>1035</ele>
        <time>2019-06-19T23:39:28Z</time>
      </trkpt>
      <trkpt lat="45.17295" lon="5.53968">
        <ele>1035</ele>
        <time>2019-06-19T23:39:30Z</time>
      </trkpt>
      <trkpt lat="45.17339" lon="5.54007">
        <ele>1035</ele>
        <time>2019-06-19T23:39:42Z</time>
      </trkpt>
      <trkpt lat="45.17354" lon="5.5404">
        <ele>1035</ele>
        <time>2019-06-19T23:39:49Z</time>
      </trkpt>
      <trkpt lat="45.17385" lon="5.5404">
        <ele>1037</ele>
        <time>2019-06-19T23:39:56Z</time>
      </trkpt>
      <trkpt lat="45.17398" lon="5.53961">
        <ele>1036</ele>
        <time>2019-06-19T23:40:09Z</time>
      </trkpt>
      <trkpt lat="45.17423" lon="5.53865">
        <ele>1033</ele>
        <time>2019-06-19T23:40:26Z</time>
      </trkpt>
      <trkpt lat="45.17501" lon="5.53912">
        <ele>1035</ele>
        <time>2019-06-19T23:40:46Z</time>
      </trkpt>
      <trkpt lat="45.17588" lon="5.53981">
        <ele>1039</ele>
        <time>2019-06-19T23:41:09Z</time>
      </trkpt>
      <trkpt lat="45.17618" lon="5.53899">
        <ele>1038</ele>
        <time>2019-06-19T23:41:24Z</time>
      </trkpt>
      <trkpt lat="45.1766" lon="5.53921">
        <ele>1039</ele>
        <time>2019-06-19T23:41:35Z</time>
        <extensions>
          <visugpx:TrkExtension xmlns:visugpx="https://www.visugpx.com/editgpx/">
            <visugpx:node>1</visugpx:node>
            </visugpx:TrkExtension>
        </extensions>
      </trkpt>
    </trkseg>
  </trk>
</gpx>